AA93 / N393AN 7700 Squawk Report (16th of September, 2019)

Aircraft B763 Reg No. N393AN Age 21 years old
Model 767 Jet engines 2 First flight 30-04-98
Registered 18-05-98 Rollout N/A Delivered 18-05-98
Construction No. 29430 Line No. 0701 Series 323(ER)
ADSHEX A48DFB Airline name American Airlines Owner N/A
Airfield based Dallas-Fort Worth~TX~N First tracked 2017-07-13 02:01:00
Time Lat Lon Altitude Heading Speed Vertical Rate
2019-09-16 11:42:31 GMT 51.470753 -0.467234 0 177 6
2019-09-16 11:42:20 GMT 51.471073 -0.467262 0 180 7
2019-09-16 11:41:47 GMT 51.472206 -0.467420 0 129 7
2019-09-16 11:41:31 GMT 51.472424 -0.468102 0 115 7
2019-09-16 11:41:27 GMT 51.472458 -0.468292 0 135 7
2019-09-16 11:41:13 GMT 51.472893 -0.468645 0 177 9
2019-09-16 11:41:01 GMT 51.473347 -0.468674 0 180 8
2019-09-16 11:40:54 GMT 51.473541 -0.468674 0 174 7
2019-09-16 11:39:57 GMT 51.474918 -0.470668 0 90 8
2019-09-16 11:39:16 GMT 51.474915 -0.472679 0 98 10
2019-09-16 11:39:12 GMT 51.474907 -0.472913 0 112 9
2019-09-16 11:39:03 GMT 51.475090 -0.473423 0 151 8
2019-09-16 11:38:51 GMT 51.475410 -0.473600 0 160 7
2019-09-16 11:38:40 GMT 51.475754 -0.473915 0 104 10
2019-09-16 11:38:27 GMT 51.475800 -0.474806 0 90 9
2019-09-16 11:38:16 GMT 51.475800 -0.475502 0 90 8
We lost coverage of the aircraft here for a total of 9 minutes
2019-09-16 11:28:57 GMT 51.477573 -0.464005 0 270 90 0
2019-09-16 11:28:45 GMT 51.477604 -0.455551 -150 270 115 0
2019-09-16 11:28:35 GMT 51.477631 -0.446208 -150 270 146 -128
2019-09-16 11:28:29 GMT 51.477676 -0.439527 -150 270 150 -128
2019-09-16 11:28:24 GMT 51.477676 -0.433589 -100 270 150 -704
2019-09-16 11:28:19 GMT 51.477695 -0.428009 25 270 149 -768
2019-09-16 11:28:14 GMT 51.477722 -0.422231 25 270 149 -768
2019-09-16 11:28:11 GMT 51.477722 -0.419410 50 270 150 -832
2019-09-16 11:28:07 GMT 51.477722 -0.415550 100 270 150 -832
2019-09-16 11:28:04 GMT 51.477695 -0.412598 200 270 149 -896
2019-09-16 11:28:01 GMT 51.477722 -0.404490 225 270 150 -768
2019-09-16 11:27:57 GMT 51.477722 -0.404490 250 270 150 -832
2019-09-16 11:27:50 GMT 51.477791 -0.396423 375 269 151 -768
2019-09-16 11:27:47 GMT 51.477814 -0.392910 375 269 151 -768
2019-09-16 11:27:42 GMT 51.477882 -0.383911 500 270 152 -960
2019-09-16 11:27:39 GMT 51.477882 -0.383911 525 270 152 -1024
2019-09-16 11:27:35 GMT 51.477905 -0.379325 525 270 152 -832
2019-09-16 11:27:32 GMT 51.477882 -0.373230 950 270 149 -768
2019-09-16 11:27:29 GMT 51.477882 -0.373230 625 271 151 -832
2019-09-16 11:27:26 GMT 51.477882 -0.369873 650 270 150 -768
2019-09-16 11:27:22 GMT 51.477882 -0.364838 725 270 150 -768
2019-09-16 11:27:19 GMT 51.477905 -0.361732 950 270 150 -704
2019-09-16 11:27:16 GMT 51.477882 -0.358429 850 270 150 -768
2019-09-16 11:27:13 GMT 51.477882 -0.354996 900 270 150 -768
2019-09-16 11:27:10 GMT 51.477882 -0.351562 1,500 270 149 -768
2019-09-16 11:27:07 GMT 51.477928 -0.347214 925 270 150 -768
2019-09-16 11:27:04 GMT 51.477905 -0.344807 950 270 149 -768
2019-09-16 11:27:01 GMT 51.477928 -0.341415 975 270 149 -832
2019-09-16 11:26:58 GMT 51.477978 -0.338669 1,000 270 149 -768
2019-09-16 11:26:55 GMT 51.477997 -0.331000 1,100 270 150 -896
2019-09-16 11:26:52 GMT 51.477997 -0.331000 1,125 271 150 -896
2019-09-16 11:26:45 GMT 51.477978 -0.324402 1,200 270 151 -832
2019-09-16 11:26:42 GMT 51.477997 -0.319940 1,275 270 151 -896
2019-09-16 11:26:39 GMT 51.477997 -0.317119 1,300 270 151 -832
2019-09-16 11:26:34 GMT 51.478043 -0.306949 1,375 270 151 -768
2019-09-16 11:26:30 GMT 51.478043 -0.306949 1,400 270 151 -832
2019-09-16 11:26:27 GMT 51.478024 -0.304184 1,450 271 150 -832
2019-09-16 11:26:23 GMT 51.478043 -0.299971 1,500 271 150 -768
2019-09-16 11:26:20 GMT 51.478024 -0.296173 1,525 270 151 -768
2019-09-16 11:26:17 GMT 51.478024 -0.293121 1,575 270 151 -768
2019-09-16 11:26:14 GMT 51.478043 -0.288540 1,625 270 153 -768
2019-09-16 11:26:11 GMT 51.478069 -0.283356 1,700 270 156 -896
2019-09-16 11:26:08 GMT 51.478043 -0.279038 1,725 271 154 -832
2019-09-16 11:26:05 GMT 51.478043 -0.279038 1,750 270 154 -768
2019-09-16 11:26:02 GMT 51.478069 -0.275650 1,800 270 155 -768
2019-09-16 11:25:59 GMT 51.478134 -0.266790 1,875 270 155 -768
2019-09-16 11:25:54 GMT 51.478134 -0.266790 2,050 270 156 -832
2019-09-16 11:25:51 GMT 51.478115 -0.263138 1,925 271 154 -768
2019-09-16 11:25:48 GMT 51.478115 -0.259552 2,000 270 155 -832
2019-09-16 11:25:45 GMT 51.478134 -0.256620 2,050 270 159 -832
2019-09-16 11:25:42 GMT 51.478134 -0.251795 2,075 270 158 -896
2019-09-16 11:25:39 GMT 51.478134 -0.249345 2,150 270 160 -832
2019-09-16 11:25:36 GMT 51.478165 -0.246506 2,200 270 160 -832
2019-09-16 11:25:33 GMT 51.478210 -0.242920 2,200 270 159 -960
2019-09-16 11:25:30 GMT 51.478210 -0.238800 2,250 270 160 -832
2019-09-16 11:25:27 GMT 51.478210 -0.235291 2,275 270 160 -832
2019-09-16 11:25:23 GMT 51.478210 -0.227585 2,375 270 158 -832
2019-09-16 11:25:20 GMT 51.478210 -0.227585 2,450 272 179 64
2019-09-16 11:25:17 GMT 51.478210 -0.223389 2,425 270 157 -832
2019-09-16 11:25:14 GMT 51.478210 -0.219955 2,500 270 157 -832
2019-09-16 11:25:10 GMT 51.478256 -0.214310 2,525 270 158 -896
2019-09-16 11:25:07 GMT 51.478271 -0.210893 2,575 271 158 -960
2019-09-16 11:25:04 GMT 51.478210 -0.204163 2,675 271 158 -896
2019-09-16 11:25:01 GMT 51.478210 -0.204163 2,675 270 157 -896
2019-09-16 11:24:58 GMT 51.478210 -0.200348 2,775 270 179 -192
2019-09-16 11:24:55 GMT 51.478180 -0.197828 2,750 270 155 -128
2019-09-16 11:24:52 GMT 51.478210 -0.194321 2,725 270 155 -64
2019-09-16 11:24:49 GMT 51.478226 -0.187213 2,725 270 167 192
2019-09-16 11:24:46 GMT 51.478226 -0.187213 2,725 270 165 192
2019-09-16 11:24:43 GMT 51.478180 -0.182536 2,725 270 172 -64
2019-09-16 11:24:40 GMT 51.478210 -0.179749 2,800 270 179 -384
2019-09-16 11:24:37 GMT 51.478180 -0.176301 2,750 270 177 -448
2019-09-16 11:24:34 GMT 51.478210 -0.172348 2,800 270 179 -384
2019-09-16 11:24:31 GMT 51.478210 -0.168915 2,775 270 179 -320
2019-09-16 11:24:28 GMT 51.478226 -0.160786 2,800 271 179 -128
2019-09-16 11:24:25 GMT 51.478226 -0.160786 2,800 271 180 -192
2019-09-16 11:24:22 GMT 51.478226 -0.156258 2,800 274 177 256
2019-09-16 11:24:18 GMT 51.477997 -0.146831 2,800 274 177 256
2019-09-16 11:24:15 GMT 51.477997 -0.146831 2,775 276 176 256
2019-09-16 11:24:12 GMT 51.477745 -0.142365 2,775 279 174 0
2019-09-16 11:24:09 GMT 51.477539 -0.139333 2,775 284 173 -512
2019-09-16 11:24:06 GMT 51.476906 -0.134277 2,850 288 173 -832
2019-09-16 11:24:03 GMT 51.476486 -0.132281 2,850 292 174 -1152
2019-09-16 11:24:00 GMT 51.474113 -0.123978 2,950 298 174 -1280
2019-09-16 11:23:57 GMT 51.474113 -0.123978 3,000 299 174 -1216
2019-09-16 11:23:54 GMT 51.473145 -0.121147 3,050 299 173 -1152
2019-09-16 11:23:51 GMT 51.472183 -0.118177 3,125 298 174 -1216
2019-09-16 11:23:48 GMT 51.471039 -0.114746 3,150 298 173 -1216
2019-09-16 11:23:45 GMT 51.469875 -0.111160 3,200 298 173 -1152
2019-09-16 11:23:42 GMT 51.468887 -0.108007 3,275 298 173 -1024
2019-09-16 11:23:39 GMT 51.467743 -0.104519 3,325 298 173 -1024
2019-09-16 11:23:36 GMT 51.465454 -0.097351 3,375 297 172 -1024
2019-09-16 11:23:33 GMT 51.465454 -0.097351 3,650 308 174 -704
2019-09-16 11:23:30 GMT 51.464539 -0.094423 3,450 297 172 -960
2019-09-16 11:23:27 GMT 51.463303 -0.090415 3,525 298 173 -832
2019-09-16 11:23:24 GMT 51.462204 -0.087148 3,525 302 174 -832
2019-09-16 11:23:20 GMT 51.460751 -0.083084 3,600 304 174 -704
2019-09-16 11:23:17 GMT 51.458450 -0.077944 3,650 315 175 -704
2019-09-16 11:23:14 GMT 51.457626 -0.076459 3,650 315 175 -704
2019-09-16 11:23:11 GMT 51.455444 -0.073547 3,725 335 176 -512
2019-09-16 11:23:08 GMT 51.453396 -0.071640 3,725 338 176 -512
2019-09-16 11:23:05 GMT 51.451862 -0.070496 3,750 349 177 -384
2019-09-16 11:23:02 GMT 51.449162 -0.069199 3,775 354 178 -256
2019-09-16 11:22:58 GMT 51.444225 -0.068665 3,800 2 180 -64
2019-09-16 11:22:51 GMT 51.440224 -0.069046 3,800 3 179 128
2019-09-16 11:22:48 GMT 51.437393 -0.069333 3,775 3 177 192
2019-09-16 11:22:45 GMT 51.435474 -0.069504 3,775 3 177 -64
2019-09-16 11:22:42 GMT 51.432953 -0.069704 3,775 3 176 -320
2019-09-16 11:22:39 GMT 51.430435 -0.070001 3,775 3 177 -128
2019-09-16 11:22:36 GMT 51.427933 -0.070190 3,775 3 176 -448
2019-09-16 11:22:33 GMT 51.425583 -0.070446 3,850 3 178 -832
2019-09-16 11:22:30 GMT 51.422745 -0.070669 3,850 56 224 -448
2019-09-16 11:22:27 GMT 51.420204 -0.070877 4,000 3 180 -1216
2019-09-16 11:22:23 GMT 51.416840 -0.071188 4,000 3 180 -1216
2019-09-16 11:22:20 GMT 51.415176 -0.071335 4,025 3 180 -1152
2019-09-16 11:22:17 GMT 51.412151 -0.071564 4,175 2 183 -1088
2019-09-16 11:22:14 GMT 51.409744 -0.071782 4,175 2 182 -1088
2019-09-16 11:22:11 GMT 51.407265 -0.071945 4,225 2 183 -1088
2019-09-16 11:22:08 GMT 51.404617 -0.072153 4,275 2 184 -1024
2019-09-16 11:22:05 GMT 51.401550 -0.072376 4,350 3 185 -896
2019-09-16 11:22:02 GMT 51.399582 -0.072525 4,400 4 186 -832
2019-09-16 11:21:59 GMT 51.396648 -0.072861 4,400 5 187 -832
2019-09-16 11:21:56 GMT 51.393856 -0.073395 4,450 10 191 -768
2019-09-16 11:21:53 GMT 51.391708 -0.073935 4,475 14 192 -768
2019-09-16 11:21:50 GMT 51.388458 -0.075494 4,525 25 199 -640
2019-09-16 11:21:44 GMT 51.384384 -0.078686 4,600 39 209 -128
2019-09-16 11:21:41 GMT 51.382050 -0.081358 4,575 47 215 -128
2019-09-16 11:21:38 GMT 51.379349 -0.085293 4,600 49 218 -256
2019-09-16 11:21:35 GMT 51.377655 -0.088559 4,625 58 226 -512
2019-09-16 11:21:32 GMT 51.375839 -0.093155 4,675 67 233 -576
2019-09-16 11:21:29 GMT 51.374405 -0.097838 4,675 73 237 -704
2019-09-16 11:21:26 GMT 51.373142 -0.103912 4,775 82 244 -832
2019-09-16 11:21:23 GMT 51.372528 -0.107785 4,950 81 243 -832
2019-09-16 11:21:20 GMT 51.371979 -0.112839 4,800 83 246 -896
2019-09-16 11:21:17 GMT 51.371605 -0.118256 4,950 84 248 -1024
2019-09-16 11:21:13 GMT 51.371155 -0.125600 4,900 84 251 -960
2019-09-16 11:21:10 GMT 51.370766 -0.131989 4,950 84 252 -1024
2019-09-16 11:21:07 GMT 51.370422 -0.137478 6,150 84 256 -1024
2019-09-16 11:21:03 GMT 51.370010 -0.144158 5,150 84 257 -960
2019-09-16 11:21:00 GMT 51.369690 -0.149800 5,125 84 257 -960
2019-09-16 11:20:57 GMT 51.369324 -0.155563 5,200 84 258 -1024
2019-09-16 11:20:54 GMT 51.368904 -0.162048 5,225 84 258 -1024
2019-09-16 11:20:51 GMT 51.368546 -0.167393 5,275 83 259 -1024
2019-09-16 11:20:48 GMT 51.368134 -0.173332 5,325 83 259 -1024
2019-09-16 11:20:45 GMT 51.367741 -0.179138 5,400 83 259 -1088
2019-09-16 11:20:42 GMT 51.367416 -0.184097 5,425 83 260 -1088
2019-09-16 11:20:39 GMT 51.366714 -0.194710 5,575 83 261 -1152
2019-09-16 11:20:36 GMT 51.366253 -0.201492 5,875 84 262 -1152
2019-09-16 11:20:33 GMT 51.366253 -0.201492 5,650 84 261 -1152
2019-09-16 11:20:30 GMT 51.365925 -0.206299 5,650 84 261 -1152
2019-09-16 11:20:27 GMT 51.365341 -0.214827 5,750 84 262 -1152
2019-09-16 11:20:24 GMT 51.365135 -0.218430 5,775 84 262 -1152
2019-09-16 11:20:21 GMT 51.364609 -0.226259 5,850 84 262 -1216
2019-09-16 11:20:15 GMT 51.364017 -0.235367 5,975 84 263 -1216
2019-09-16 11:20:12 GMT 51.363190 -0.248009 6,050 84 263 -1216
2019-09-16 11:20:09 GMT 51.363190 -0.248009 6,075 84 263 -1216
2019-09-16 11:20:05 GMT 51.362732 -0.255581 6,150 84 266 -1024
2019-09-16 11:20:02 GMT 51.362434 -0.260315 6,225 84 264 -1152
2019-09-16 11:19:59 GMT 51.361771 -0.271318 6,400 84 265 -1088
2019-09-16 11:19:53 GMT 51.360943 -0.284500 6,500 84 267 -1024
2019-09-16 11:19:50 GMT 51.360943 -0.284500 6,475 84 267 -960
2019-09-16 11:19:47 GMT 51.360535 -0.290841 6,500 84 268 -960
2019-09-16 11:19:44 GMT 51.360214 -0.296557 6,550 84 269 -960
2019-09-16 11:19:41 GMT 51.359921 -0.302200 6,600 84 271 -1024
2019-09-16 11:19:38 GMT 51.359528 -0.308805 6,775 84 271 -1024
2019-09-16 11:19:35 GMT 51.359268 -0.313873 6,725 85 271 -1152
2019-09-16 11:19:32 GMT 51.358932 -0.319940 6,775 85 271 -1152
2019-09-16 11:19:29 GMT 51.358570 -0.326233 6,775 85 271 -1216
2019-09-16 11:19:26 GMT 51.358292 -0.331520 7,000 85 271 -832
2019-09-16 11:19:23 GMT 51.357925 -0.338943 7,000 85 271 -640
2019-09-16 11:19:20 GMT 51.357731 -0.343018 6,950 85 271 -1088
2019-09-16 11:19:17 GMT 51.357376 -0.350375 7,000 85 271 -896
2019-09-16 11:19:14 GMT 51.356709 -0.362625 7,025 84 271 -128
2019-09-16 11:19:11 GMT 51.356709 -0.362625 7,025 83 275 128
2019-09-16 11:19:08 GMT 51.356430 -0.367584 7,025 42 289 -640
2019-09-16 11:19:05 GMT 51.356003 -0.373535 7,000 82 277 192
2019-09-16 11:19:02 GMT 51.355034 -0.385666 7,000 74 284 0
2019-09-16 11:18:56 GMT 51.353916 -0.393982 7,000 46 288 -512
2019-09-16 11:18:53 GMT 51.353168 -0.398026 7,000 67 286 -64
2019-09-16 11:18:50 GMT 51.351242 -0.405975 7,000 62 288 -128
2019-09-16 11:18:47 GMT 51.349731 -0.410503 7,025 57 288 -192
2019-09-16 11:18:44 GMT 51.348373 -0.414047 7,025 37 288 -960
2019-09-16 11:18:41 GMT 51.345657 -0.419930 7,050 48 289 -384
2019-09-16 11:18:38 GMT 51.339157 -0.430145 7,100 39 289 -832
2019-09-16 11:18:35 GMT 51.339157 -0.430145 7,125 33 287 -1152
2019-09-16 11:18:32 GMT 51.336868 -0.432772 8,225 8 281 -2112
2019-09-16 11:18:29 GMT 51.333344 -0.436187 7,375 22 283 -1536
2019-09-16 11:18:26 GMT 51.327759 -0.440195 7,375 16 281 -1792
2019-09-16 11:18:23 GMT 51.326523 -0.440864 7,400 16 281 -1792
2019-09-16 11:18:20 GMT 51.322037 -0.442794 7,500 8 281 -1856
2019-09-16 11:18:17 GMT 51.317280 -0.444183 7,650 8 279 -1792
2019-09-16 11:18:14 GMT 51.313385 -0.445169 7,675 8 280 -1792
2019-09-16 11:18:11 GMT 51.310043 -0.445911 7,850 8 281 -1856
2019-09-16 11:18:08 GMT 51.302353 -0.447693 7,925 8 280 -1920
2019-09-16 11:18:05 GMT 51.298874 -0.448509 8,225 8 281 -1984
2019-09-16 11:18:02 GMT 51.298874 -0.448509 8,200 8 281 -2048
2019-09-16 11:17:59 GMT 51.293907 -0.449677 8,225 8 282 -2048
2019-09-16 11:17:56 GMT 51.291348 -0.450287 8,275 8 282 -2112
2019-09-16 11:17:53 GMT 51.286240 -0.451553 8,325 8 282 -2112
2019-09-16 11:17:50 GMT 51.284042 -0.452073 8,550 8 281 -2176
2019-09-16 11:17:47 GMT 51.280197 -0.452963 8,600 8 281 -2176
2019-09-16 11:17:44 GMT 51.275940 -0.454003 9,125 8 283 -1984
2019-09-16 11:17:41 GMT 51.272186 -0.454819 8,825 8 281 -2112
2019-09-16 11:17:38 GMT 51.268066 -0.455784 9,075 8 281 -2048
2019-09-16 11:17:35 GMT 51.264256 -0.456696 9,025 8 283 -1984
2019-09-16 11:17:32 GMT 51.259552 -0.457788 9,250 8 283 -1920
2019-09-16 11:17:26 GMT 51.252338 -0.459518 9,350 8 284 -1920
2019-09-16 11:17:23 GMT 51.248932 -0.460387 9,475 8 288 -1792
2019-09-16 11:17:20 GMT 51.244144 -0.461502 9,550 8 286 -1856
2019-09-16 11:17:17 GMT 51.240692 -0.462317 10,400 8 288 -1792
2019-09-16 11:17:14 GMT 51.236664 -0.463282 11,100 8 288 -1792
2019-09-16 11:17:11 GMT 51.233299 -0.464096 9,725 8 288 -1792
2019-09-16 11:17:08 GMT 51.228378 -0.465212 9,925 8 289 -1792
2019-09-16 11:17:05 GMT 51.225662 -0.465851 9,950 8 289 -1792
2019-09-16 11:17:02 GMT 51.220264 -0.467224 10,075 8 296 -1792
2019-09-16 11:16:59 GMT 51.217117 -0.467958 10,175 8 291 -1792
2019-09-16 11:16:55 GMT 51.211121 -0.469369 10,275 8 292 -1856
2019-09-16 11:16:51 GMT 51.206451 -0.470408 10,400 8 293 -1920
2019-09-16 11:16:48 GMT 51.203735 -0.471039 10,550 8 293 -1920
2019-09-16 11:16:45 GMT 51.198303 -0.472338 10,600 8 294 -1920
2019-09-16 11:16:42 GMT 51.194275 -0.473303 10,750 8 294 -1920
2019-09-16 11:16:39 GMT 51.190384 -0.474194 10,800 8 295 -1920
2019-09-16 11:16:36 GMT 51.182369 -0.476151 10,925 8 295 -1856
2019-09-16 11:16:33 GMT 51.178833 -0.476913 11,150 8 298 -1856
2019-09-16 11:16:30 GMT 51.174641 -0.477905 11,350 8 298 -1856
2019-09-16 11:16:27 GMT 51.174641 -0.477905 11,300 8 298 -1856
2019-09-16 11:16:24 GMT 51.170174 -0.478973 11,225 8 298 -1856
2019-09-16 11:16:21 GMT 51.165100 -0.480118 11,275 8 297 -1920
2019-09-16 11:16:18 GMT 51.158115 -0.481720 11,725 8 300 -2112
2019-09-16 11:16:15 GMT 51.153881 -0.482712 11,600 8 299 -2048
2019-09-16 11:16:12 GMT 51.153881 -0.482712 11,825 8 302 -1984
2019-09-16 11:16:09 GMT 51.149963 -0.483547 11,825 8 302 -1984
2019-09-16 11:16:06 GMT 51.144665 -0.484772 11,850 8 301 -2048
2019-09-16 11:16:03 GMT 51.141037 -0.485625 11,925 8 303 -1856
2019-09-16 11:16:00 GMT 51.137634 -0.486450 11,975 8 303 -1856
2019-09-16 11:15:57 GMT 51.133492 -0.487366 12,200 8 307 -1536
2019-09-16 11:15:54 GMT 51.126846 -0.488817 12,300 8 312 -1408
2019-09-16 11:15:51 GMT 51.124645 -0.489349 12,250 7 309 -1408
2019-09-16 11:15:48 GMT 51.119888 -0.490376 12,325 8 312 -1344
2019-09-16 11:15:45 GMT 51.116405 -0.491180 12,750 8 329 -1408
2019-09-16 11:15:42 GMT 51.111797 -0.492325 12,475 8 318 -1344
2019-09-16 11:15:39 GMT 51.106117 -0.493698 12,600 9 324 -1344
2019-09-16 11:15:36 GMT 51.103409 -0.494385 12,950 9 325 -1344
2019-09-16 11:15:33 GMT 51.096714 -0.496063 12,650 9 326 -1344
2019-09-16 11:15:30 GMT 51.089127 -0.497948 12,775 8 352 -1792
2019-09-16 11:15:27 GMT 51.089127 -0.497948 12,950 8 340 -1600
2019-09-16 11:15:23 GMT 51.082657 -0.499496 12,875 8 334 -1472
2019-09-16 11:15:20 GMT 51.080475 -0.500026 13,000 8 338 -1472
2019-09-16 11:15:17 GMT 51.068527 -0.502773 13,100 8 346 -1728
2019-09-16 11:15:14 GMT 51.064545 -0.503693 13,200 8 344 -1728
2019-09-16 11:15:11 GMT 51.064545 -0.503693 13,250 8 347 -1792
2019-09-16 11:15:08 GMT 51.053558 -0.506210 13,475 8 369 -1024
2019-09-16 11:15:04 GMT 51.053558 -0.506210 13,425 8 351 -1792
2019-09-16 11:15:01 GMT 51.048523 -0.507375 13,625 8 358 -1216
2019-09-16 11:14:55 GMT 51.040100 -0.509380 13,675 8 360 -1024
2019-09-16 11:14:52 GMT 51.033588 -0.510941 13,700 8 362 -960
2019-09-16 11:14:49 GMT 51.025303 -0.512924 13,750 8 364 -960
2019-09-16 11:14:43 GMT 51.014557 -0.515467 13,850 8 371 -1024
2019-09-16 11:14:40 GMT 51.014557 -0.515467 13,900 8 371 -1024
2019-09-16 11:14:37 GMT 51.010162 -0.516506 15,800 8 369 -2432
2019-09-16 11:14:34 GMT 51.003471 -0.518112 13,975 8 372 -1024
2019-09-16 11:14:31 GMT 50.993416 -0.520477 14,050 8 374 -832
2019-09-16 11:14:28 GMT 50.993416 -0.520477 14,075 8 377 -704
2019-09-16 11:14:25 GMT 50.983841 -0.522593 14,150 8 380 -1024
2019-09-16 11:14:22 GMT 50.983841 -0.522593 14,175 8 380 -1024
2019-09-16 11:14:19 GMT 50.977493 -0.524063 14,225 8 382 -1536
2019-09-16 11:14:16 GMT 50.974960 -0.524671 14,250 8 382 -1600
2019-09-16 11:14:13 GMT 50.968140 -0.526230 14,450 8 382 -2112
2019-09-16 11:14:10 GMT 50.962692 -0.527418 14,500 8 382 -2304
2019-09-16 11:14:06 GMT 50.956497 -0.528870 14,650 8 383 -2432
2019-09-16 11:14:02 GMT 50.949417 -0.530536 14,850 8 382 -2432
2019-09-16 11:13:59 GMT 50.943649 -0.531872 15,125 8 381 -2432
2019-09-16 11:13:56 GMT 50.939072 -0.532911 15,100 8 381 -2432
2019-09-16 11:13:53 GMT 50.932800 -0.534322 15,525 8 381 -2496
2019-09-16 11:13:50 GMT 50.926666 -0.535732 15,325 8 381 -2496
2019-09-16 11:13:47 GMT 50.919342 -0.537439 15,550 8 381 -2496
2019-09-16 11:13:44 GMT 50.915863 -0.538256 15,600 8 381 -2496
2019-09-16 11:13:41 GMT 50.913300 -0.538864 15,825 8 381 -2496
2019-09-16 11:13:38 GMT 50.905746 -0.540631 15,825 8 380 -2496
2019-09-16 11:13:35 GMT 50.896633 -0.542831 16,075 8 380 -2432
2019-09-16 11:13:32 GMT 50.896633 -0.542831 16,150 8 380 -2432
2019-09-16 11:13:29 GMT 50.890961 -0.544194 16,150 8 380 -2432
2019-09-16 11:13:26 GMT 50.885834 -0.545425 16,475 8 380 -2432
2019-09-16 11:13:23 GMT 50.880478 -0.546646 16,525 8 379 -2432
2019-09-16 11:13:20 GMT 50.876148 -0.547714 16,525 8 379 -2432
2019-09-16 11:13:17 GMT 50.870316 -0.549019 16,675 8 378 -2432
2019-09-16 11:13:14 GMT 50.866333 -0.549984 16,725 8 378 -2432
2019-09-16 11:13:11 GMT 50.859158 -0.551605 16,975 8 378 -2432
2019-09-16 11:13:08 GMT 50.854019 -0.552731 17,050 8 379 -2432
2019-09-16 11:13:05 GMT 50.849426 -0.553818 17,125 8 378 -2432
2019-09-16 11:13:02 GMT 50.845047 -0.554884 17,400 8 378 -2432
2019-09-16 11:12:59 GMT 50.839325 -0.556220 17,400 8 378 -2432
2019-09-16 11:12:56 GMT 50.833145 -0.557779 17,425 8 377 -2432
2019-09-16 11:12:53 GMT 50.829597 -0.558624 20,525 8 377 -1536
2019-09-16 11:12:50 GMT 50.822193 -0.560379 17,800 8 376 -2368
2019-09-16 11:12:47 GMT 50.817028 -0.561600 17,850 8 376 -2432
2019-09-16 11:12:44 GMT 50.811951 -0.562827 18,025 8 374 -2432
2019-09-16 11:12:41 GMT 50.809673 -0.563354 18,100 8 374 -2368
2019-09-16 11:12:38 GMT 50.797760 -0.566093 18,325 8 373 -2432
2019-09-16 11:12:35 GMT 50.797760 -0.566093 18,400 8 372 -2432
2019-09-16 11:12:32 GMT 50.792355 -0.567322 18,500 8 372 -2432
2019-09-16 11:12:28 GMT 50.786316 -0.568765 18,775 8 371 -2432
2019-09-16 11:12:25 GMT 50.781235 -0.569953 18,750 8 371 -2432
2019-09-16 11:12:22 GMT 50.774597 -0.571438 18,925 8 370 -2432
2019-09-16 11:12:19 GMT 50.769516 -0.572625 19,175 8 369 -2432
2019-09-16 11:12:16 GMT 50.766193 -0.573349 19,525 8 367 -2432
2019-09-16 11:12:13 GMT 50.759171 -0.575001 19,225 8 368 -2432
2019-09-16 11:12:10 GMT 50.756557 -0.575562 19,300 8 369 -2432
2019-09-16 11:12:07 GMT 50.744732 -0.578232 20,475 8 368 -1344
2019-09-16 11:12:04 GMT 50.739704 -0.579376 20,275 8 365 -1600
2019-09-16 11:12:01 GMT 50.739704 -0.579376 19,850 8 366 -2432
2019-09-16 11:11:58 GMT 50.734489 -0.580597 20,150 8 379 -1984
2019-09-16 11:11:55 GMT 50.730164 -0.581589 20,050 8 366 -1472
2019-09-16 11:11:52 GMT 50.725319 -0.582657 20,050 8 364 -2496
2019-09-16 11:11:49 GMT 50.721542 -0.583537 20,225 8 365 -1856
2019-09-16 11:11:46 GMT 50.714474 -0.585175 21,100 8 378 -1600
2019-09-16 11:11:43 GMT 50.710373 -0.586135 20,475 8 367 -1408
2019-09-16 11:11:40 GMT 50.700878 -0.588303 20,525 8 368 -1344
2019-09-16 11:11:34 GMT 50.695667 -0.589523 20,800 8 369 -1280
2019-09-16 11:11:31 GMT 50.690872 -0.590589 20,750 8 372 -1280
2019-09-16 11:11:28 GMT 50.685844 -0.591812 20,725 8 371 -1280
2019-09-16 11:11:25 GMT 50.681351 -0.592816 20,825 8 372 -1280
2019-09-16 11:11:22 GMT 50.675323 -0.594254 20,850 8 373 -1280
2019-09-16 11:11:19 GMT 50.662800 -0.597122 20,950 8 376 -1408
2019-09-16 11:11:15 GMT 50.662800 -0.597122 21,000 8 376 -1408
2019-09-16 11:11:12 GMT 50.656609 -0.598532 21,050 8 377 -1536
2019-09-16 11:11:09 GMT 50.651814 -0.599646 21,200 8 378 -1664
2019-09-16 11:11:06 GMT 50.643402 -0.601574 21,300 8 378 -1792
2019-09-16 11:11:00 GMT 50.638229 -0.602802 21,950 8 381 -1792
2019-09-16 11:10:57 GMT 50.632690 -0.604031 21,525 8 379 -1984
2019-09-16 11:10:54 GMT 50.627335 -0.605332 21,700 8 379 -1984
2019-09-16 11:10:51 GMT 50.621796 -0.606561 21,700 8 379 -1984
2019-09-16 11:10:48 GMT 50.615456 -0.608034 23,625 8 387 -1920
2019-09-16 11:10:44 GMT 50.608292 -0.609669 21,975 8 379 -1920
2019-09-16 11:10:41 GMT 50.604378 -0.610558 22,025 8 379 -1856
2019-09-16 11:10:38 GMT 50.600143 -0.611548 22,075 8 379 -1856
2019-09-16 11:10:35 GMT 50.593300 -0.613156 22,175 8 380 -1920
2019-09-16 11:10:32 GMT 50.588970 -0.614121 22,275 8 380 -1920
2019-09-16 11:10:29 GMT 50.581924 -0.615740 22,575 8 380 -1856
2019-09-16 11:10:25 GMT 50.576889 -0.616897 22,500 8 380 -1856
2019-09-16 11:10:22 GMT 50.572441 -0.617907 22,600 8 380 -1856
2019-09-16 11:10:19 GMT 50.564621 -0.619688 22,775 8 381 -1792
2019-09-16 11:10:16 GMT 50.561005 -0.620438 23,350 8 383 -1728
2019-09-16 11:10:13 GMT 50.555969 -0.621595 22,900 8 381 -1728
2019-09-16 11:10:10 GMT 50.548374 -0.623400 23,075 8 383 -1728
2019-09-16 11:10:06 GMT 50.542927 -0.624588 23,150 8 383 -1728
2019-09-16 11:10:03 GMT 50.535572 -0.626295 23,975 8 388 -1920
2019-09-16 11:10:00 GMT 50.533035 -0.626871 23,350 8 385 -1920
2019-09-16 11:09:57 GMT 50.526962 -0.628299 23,525 8 386 -1920
2019-09-16 11:09:51 GMT 50.515228 -0.630919 23,625 8 385 -1920
2019-09-16 11:09:48 GMT 50.510761 -0.631937 23,825 8 385 -1920
2019-09-16 11:09:45 GMT 50.505707 -0.633087 23,800 8 386 -1920
2019-09-16 11:09:42 GMT 50.495911 -0.635351 23,950 8 387 -1920
2019-09-16 11:09:39 GMT 50.490509 -0.636557 24,125 8 388 -1920
2019-09-16 11:09:36 GMT 50.490509 -0.636557 24,100 8 388 -1920
2019-09-16 11:09:33 GMT 50.483597 -0.638147 24,150 8 388 -1920
2019-09-16 11:09:30 GMT 50.479706 -0.639086 24,250 8 388 -1920
2019-09-16 11:09:27 GMT 50.465557 -0.642329 24,425 8 389 -1856
2019-09-16 11:09:23 GMT 50.465557 -0.642329 24,425 8 389 -1856
2019-09-16 11:09:20 GMT 50.462082 -0.643134 24,775 8 391 -1728
2019-09-16 11:09:17 GMT 50.457363 -0.644185 24,700 8 393 -1920
2019-09-16 11:09:14 GMT 50.449448 -0.646025 24,700 8 390 -1792
2019-09-16 11:09:11 GMT 50.446144 -0.646783 24,850 8 391 -1792
2019-09-16 11:09:08 GMT 50.439972 -0.648193 24,950 8 392 -1728
2019-09-16 11:09:04 GMT 50.430634 -0.650289 25,225 8 393 -1792
2019-09-16 11:09:01 GMT 50.422394 -0.652241 25,625 8 394 -2048
2019-09-16 11:08:58 GMT 50.422394 -0.652241 25,325 8 394 -1984
2019-09-16 11:08:52 GMT 50.411510 -0.654800 25,400 8 394 -2112
2019-09-16 11:08:48 GMT 50.404854 -0.656285 25,800 8 396 -1920
2019-09-16 11:08:45 GMT 50.399185 -0.657662 25,800 8 394 -2176
2019-09-16 11:08:41 GMT 50.392319 -0.659180 26,050 8 394 -2048
2019-09-16 11:08:38 GMT 50.387024 -0.660367 25,875 8 394 -2112
2019-09-16 11:08:35 GMT 50.380280 -0.661926 26,050 8 394 -2048
2019-09-16 11:08:32 GMT 50.374596 -0.663188 26,150 8 395 -1984
2019-09-16 11:08:29 GMT 50.368263 -0.664599 26,300 8 395 -1984
2019-09-16 11:08:26 GMT 50.365631 -0.665251 26,525 8 396 -1920
2019-09-16 11:08:22 GMT 50.358349 -0.666900 26,550 8 396 -1920
2019-09-16 11:08:19 GMT 50.352264 -0.668287 26,575 8 401 -1856
2019-09-16 11:08:16 GMT 50.345718 -0.669732 26,650 8 401 -1856
2019-09-16 11:08:13 GMT 50.334049 -0.672393 26,800 8 398 -1920
2019-09-16 11:08:10 GMT 50.334049 -0.672393 26,850 8 398 -1920
2019-09-16 11:08:07 GMT 50.331116 -0.673061 27,050 8 401 -1856
2019-09-16 11:08:04 GMT 50.324039 -0.674694 27,025 8 398 -1920
2019-09-16 11:08:01 GMT 50.318848 -0.675876 27,125 8 400 -1920
2019-09-16 11:07:58 GMT 50.314087 -0.676960 27,375 8 401 -1856
2019-09-16 11:07:55 GMT 50.309326 -0.677972 27,250 8 400 -1920
2019-09-16 11:07:52 GMT 50.302113 -0.679593 27,550 8 401 -1856
2019-09-16 11:07:49 GMT 50.298111 -0.680484 27,575 8 401 -1856
2019-09-16 11:07:46 GMT 50.292618 -0.681746 27,575 8 402 -1856
2019-09-16 11:07:42 GMT 50.285156 -0.683465 27,675 8 402 -1856
2019-09-16 11:07:39 GMT 50.279663 -0.684694 27,850 8 404 -1728
2019-09-16 11:07:36 GMT 50.273392 -0.686140 28,000 8 417 -1920
2019-09-16 11:07:33 GMT 50.268219 -0.687296 28,025 8 405 -1728
2019-09-16 11:07:30 GMT 50.262405 -0.688650 28,825 8 413 -2048
2019-09-16 11:07:26 GMT 50.254715 -0.690332 28,125 8 407 -1792
2019-09-16 11:07:23 GMT 50.250229 -0.691344 28,300 8 407 -1792
2019-09-16 11:07:20 GMT 50.243271 -0.692955 28,400 8 408 -1792
2019-09-16 11:07:17 GMT 50.238617 -0.693994 28,550 8 410 -1792
2019-09-16 11:07:14 GMT 50.233170 -0.695182 28,975 8 411 -1856
2019-09-16 11:07:10 GMT 50.219788 -0.698210 28,700 8 411 -1856
2019-09-16 11:07:07 GMT 50.219788 -0.698210 28,750 8 411 -1856
2019-09-16 11:07:04 GMT 50.214523 -0.699439 28,825 8 411 -1920
2019-09-16 11:07:00 GMT 50.206356 -0.701269 29,075 8 413 -2048
2019-09-16 11:06:57 GMT 50.201157 -0.702402 29,050 8 413 -2048
2019-09-16 11:06:54 GMT 50.195602 -0.703645 29,150 8 413 -2048
2019-09-16 11:06:50 GMT 50.189255 -0.705077 29,225 8 413 -2048
2019-09-16 11:06:47 GMT 50.180923 -0.706956 29,425 8 414 -2048
2019-09-16 11:06:44 GMT 50.176285 -0.707950 29,525 8 415 -2048
2019-09-16 11:06:41 GMT 50.170231 -0.709360 29,650 8 415 -1984
2019-09-16 11:06:38 GMT 50.165482 -0.710400 29,950 8 416 -1984
2019-09-16 11:06:35 GMT 50.152355 -0.713295 29,950 8 417 -1920
2019-09-16 11:06:29 GMT 50.148651 -0.714111 30,050 8 418 -1920
2019-09-16 11:06:26 GMT 50.142441 -0.715522 30,225 8 426 -1664
2019-09-16 11:06:23 GMT 50.136429 -0.716858 30,225 8 419 -1792
2019-09-16 11:06:20 GMT 50.129700 -0.718376 30,375 8 421 -1600
2019-09-16 11:06:17 GMT 50.126144 -0.719233 30,300 8 420 -1664
2019-09-16 11:06:14 GMT 50.113438 -0.722128 30,475 8 422 -1600
2019-09-16 11:06:11 GMT 50.106873 -0.723613 30,575 8 424 -1600
2019-09-16 11:06:08 GMT 50.106873 -0.723613 30,900 8 427 -1728
2019-09-16 11:06:05 GMT 50.101845 -0.724801 30,675 8 426 -1664
2019-09-16 11:06:02 GMT 50.095917 -0.726182 31,050 8 444 -1024
2019-09-16 11:05:59 GMT 50.090057 -0.727483 32,050 8 432 -2048
2019-09-16 11:05:56 GMT 50.082413 -0.729218 30,975 8 429 -1856
2019-09-16 11:05:53 GMT 50.071728 -0.731630 31,125 8 430 -1984
2019-09-16 11:05:50 GMT 50.066650 -0.732818 32,050 8 434 -2048
2019-09-16 11:05:47 GMT 50.059662 -0.734422 31,325 8 431 -1984
2019-09-16 11:05:44 GMT 50.059662 -0.734422 31,400 8 431 -1984
2019-09-16 11:05:38 GMT 50.041718 -0.738541 31,625 8 432 -2048
2019-09-16 11:05:35 GMT 50.039749 -0.739047 31,675 8 433 -2048
2019-09-16 11:05:32 GMT 50.036774 -0.739698 31,775 8 433 -2048
2019-09-16 11:05:29 GMT 50.032532 -0.740686 31,775 8 434 -2048
2019-09-16 11:05:26 GMT 50.025967 -0.742171 32,150 8 434 -2048
2019-09-16 11:05:23 GMT 50.016129 -0.744396 32,075 8 434 -2048
2019-09-16 11:05:20 GMT 50.011963 -0.745336 32,600 7 441 -1536
2019-09-16 11:05:16 GMT 50.003109 -0.747293 32,550 7 441 -1536
2019-09-16 11:05:13 GMT 49.997707 -0.748481 32,350 7 437 -1664
2019-09-16 11:05:09 GMT 49.990631 -0.749961 32,500 8 443 -1664
2019-09-16 11:05:03 GMT 49.980011 -0.752274 32,650 7 440 -1472
2019-09-16 11:05:00 GMT 49.972664 -0.753825 32,750 7 441 -1536
2019-09-16 11:04:57 GMT 49.968521 -0.754732 32,800 8 443 -1536
2019-09-16 11:04:54 GMT 49.961956 -0.756201 32,825 8 443 -1536
2019-09-16 11:04:50 GMT 49.953735 -0.757984 32,900 8 443 -1536
2019-09-16 11:04:47 GMT 49.947464 -0.759358 33,000 8 443 -1600
2019-09-16 11:04:44 GMT 49.941559 -0.760659 33,075 8 443 -1664
2019-09-16 11:04:40 GMT 49.933868 -0.762393 33,250 8 443 -1664
2019-09-16 11:04:37 GMT 49.925766 -0.764128 33,275 8 443 -1600
2019-09-16 11:04:33 GMT 49.919449 -0.765501 33,350 8 443 -1280
2019-09-16 11:04:29 GMT 49.912170 -0.767164 33,475 8 443 -1408
2019-09-16 11:04:26 GMT 49.903473 -0.769115 33,575 8 444 -1024
2019-09-16 11:04:23 GMT 49.898163 -0.770272 33,625 8 445 -768
2019-09-16 11:04:20 GMT 49.890839 -0.771934 33,625 8 444 -896
2019-09-16 11:04:16 GMT 49.879189 -0.774536 33,800 8 445 -768
2019-09-16 11:04:13 GMT 49.879189 -0.774536 33,750 8 446 -704
2019-09-16 11:04:10 GMT 49.871109 -0.776415 33,775 8 445 -768
2019-09-16 11:04:07 GMT 49.865021 -0.777789 33,825 8 446 -704
2019-09-16 11:04:04 GMT 49.858887 -0.779090 33,850 8 446 -704
2019-09-16 11:04:01 GMT 49.854095 -0.780178 33,900 8 446 -576
2019-09-16 11:03:58 GMT 49.848679 -0.781403 33,900 8 447 -576
2019-09-16 11:03:55 GMT 49.841537 -0.782993 33,975 8 447 -512
2019-09-16 11:03:51 GMT 49.830322 -0.785522 34,000 8 448 64
2019-09-16 11:03:48 GMT 49.826302 -0.786413 33,975 8 448 -256
2019-09-16 11:03:44 GMT 49.814117 -0.789064 34,000 8 448 0
2019-09-16 11:03:41 GMT 49.814117 -0.789064 34,000 8 449 0
2019-09-16 11:03:37 GMT 49.804504 -0.791232 34,000 8 448 -64
2019-09-16 11:03:34 GMT 49.798653 -0.792500 34,000 8 448 0
2019-09-16 11:03:31 GMT 49.791367 -0.794124 34,000 8 448 0
2019-09-16 11:03:27 GMT 49.783997 -0.795714 34,000 8 448 64
2019-09-16 11:03:24 GMT 49.775574 -0.797593 34,000 8 448 0
2019-09-16 11:03:21 GMT 49.764622 -0.799998 34,000 8 448 64
2019-09-16 11:03:17 GMT 49.764622 -0.799998 34,000 8 448 64
2019-09-16 11:03:13 GMT 49.756428 -0.801779 34,000 8 448 0
2019-09-16 11:03:10 GMT 49.746872 -0.803881 34,000 8 448 0
2019-09-16 11:03:07 GMT 49.741856 -0.804971 34,000 8 448 0
2019-09-16 11:03:02 GMT 49.732220 -0.807050 34,000 8 448 0
2019-09-16 11:02:59 GMT 49.727287 -0.808163 34,000 8 448 0
2019-09-16 11:02:56 GMT 49.719177 -0.809953 34,000 8 450 0
2019-09-16 11:02:52 GMT 49.711578 -0.811687 34,000 8 448 0
2019-09-16 11:02:47 GMT 49.699821 -0.814324 33,975 8 449 0
2019-09-16 11:02:42 GMT 49.690475 -0.816458 34,000 8 449 0
2019-09-16 11:02:39 GMT 49.685120 -0.817614 34,000 8 449 0
2019-09-16 11:02:36 GMT 49.679169 -0.818915 34,000 8 449 0
2019-09-16 11:02:33 GMT 49.673401 -0.820216 34,000 8 449 -64
2019-09-16 11:02:30 GMT 49.659027 -0.823324 34,000 8 450 0
2019-09-16 11:02:26 GMT 49.659027 -0.823324 34,000 8 450 -64
2019-09-16 11:02:23 GMT 49.650375 -0.825203 34,000 8 450 -64
2019-09-16 11:02:16 GMT 49.638245 -0.827878 34,000 8 450 -64
2019-09-16 11:02:13 GMT 49.626595 -0.830507 34,000 8 450 0
2019-09-16 11:02:10 GMT 49.626595 -0.830507 34,000 8 450 0
2019-09-16 11:02:05 GMT 49.615887 -0.832882 34,000 8 450 0
2019-09-16 11:02:02 GMT 49.607758 -0.834672 34,000 8 450 0
2019-09-16 11:01:59 GMT 49.603737 -0.835555 34,000 8 449 0
2019-09-16 11:01:55 GMT 49.595398 -0.837491 34,000 8 450 0
2019-09-16 11:01:52 GMT 49.589352 -0.838821 34,000 8 450 0
2019-09-16 11:01:48 GMT 49.578735 -0.841249 34,000 8 449 0
2019-09-16 11:01:45 GMT 49.574615 -0.842117 34,000 8 449 0
2019-09-16 11:01:42 GMT 49.562584 -0.844834 34,000 8 449 0
2019-09-16 11:01:39 GMT 49.562584 -0.844834 34,000 8 449 0
2019-09-16 11:01:35 GMT 49.546051 -0.848549 34,000 8 449 0
2019-09-16 11:01:31 GMT 49.546051 -0.848549 34,000 8 449 0
2019-09-16 11:01:28 GMT 49.540695 -0.849778 34,000 8 449 0
2019-09-16 11:01:25 GMT 49.531265 -0.851946 34,000 8 450 0
2019-09-16 11:01:21 GMT 49.526321 -0.853103 34,000 8 450 0
2019-09-16 11:01:18 GMT 49.519058 -0.854707 34,000 8 449 0
2019-09-16 11:01:14 GMT 49.510632 -0.856711 34,000 8 449 0
2019-09-16 11:01:11 GMT 49.504761 -0.858018 34,000 8 448 0
2019-09-16 11:01:08 GMT 49.499863 -0.859174 34,000 8 449 0
2019-09-16 11:01:05 GMT 49.492569 -0.860794 34,000 8 449 64
2019-09-16 11:01:00 GMT 49.479023 -0.863911 34,000 8 449 64
2019-09-16 11:00:57 GMT 49.474506 -0.864951 34,000 8 449 0
2019-09-16 11:00:54 GMT 49.470291 -0.865968 34,000 8 449 0
2019-09-16 11:00:50 GMT 49.461380 -0.867994 34,000 8 449 0
2019-09-16 11:00:47 GMT 49.453262 -0.869871 34,000 8 449 0
2019-09-16 11:00:43 GMT 49.446808 -0.871409 34,000 6 446 -64
2019-09-16 11:00:39 GMT 49.439640 -0.873042 34,000 8 448 0
2019-09-16 11:00:36 GMT 49.431747 -0.874859 34,000 8 448 0
2019-09-16 11:00:33 GMT 49.425385 -0.876301 34,000 8 448 0
2019-09-16 11:00:30 GMT 49.421310 -0.877216 34,000 8 447 0
2019-09-16 11:00:27 GMT 49.413429 -0.879051 34,025 8 447 0
2019-09-16 11:00:22 GMT 49.404510 -0.881019 34,000 8 447 0
2019-09-16 11:00:19 GMT 49.399384 -0.882216 34,000 8 447 0
2019-09-16 11:00:16 GMT 49.390778 -0.884118 34,000 8 447 0
2019-09-16 11:00:12 GMT 49.377914 -0.886935 34,000 7 447 -64
2019-09-16 11:00:09 GMT 49.377914 -0.886935 34,025 0 444 0
2019-09-16 11:00:06 GMT 49.372700 -0.888013 34,025 7 446 -64
2019-09-16 11:00:02 GMT 49.362038 -0.890109 34,000 6 446 0
2019-09-16 10:59:59 GMT 49.357334 -0.890977 34,025 7 446 64
2019-09-16 10:59:56 GMT 49.349331 -0.892422 34,025 7 446 128
2019-09-16 10:59:53 GMT 49.344315 -0.893343 34,025 6 446 0
2019-09-16 10:59:50 GMT 49.340343 -0.894085 34,025 7 446 256
2019-09-16 10:59:47 GMT 49.333176 -0.895386 34,025 7 447 256
2019-09-16 10:59:43 GMT 49.324005 -0.897265 34,000 7 446 256
2019-09-16 10:59:40 GMT 49.319824 -0.898132 34,000 7 446 256
2019-09-16 10:59:37 GMT 49.313576 -0.899433 33,975 323 445 64
2019-09-16 10:59:34 GMT 49.303436 -0.901090 34,000 358 443 0
2019-09-16 10:59:31 GMT 49.298492 -0.901513 34,000 0 444 0
2019-09-16 10:59:28 GMT 49.293236 -0.901674 34,000 352 442 0
2019-09-16 10:59:21 GMT 49.280712 -0.900590 34,000 352 442 0
2019-09-16 10:59:18 GMT 49.272629 -0.898907 34,000 344 443 0
2019-09-16 10:59:14 GMT 49.265488 -0.896759 34,000 339 443 0
2019-09-16 10:59:11 GMT 49.257431 -0.893555 34,000 342 443 0
2019-09-16 10:59:08 GMT 49.251343 -0.890667 34,000 334 443 0
2019-09-16 10:59:03 GMT 49.242874 -0.885737 34,000 331 444 64
2019-09-16 10:59:00 GMT 49.235550 -0.880667 34,000 331 444 64
2019-09-16 10:58:57 GMT 49.232529 -0.878328 34,000 312 448 -192
2019-09-16 10:58:54 GMT 49.227036 -0.873695 33,975 325 445 64
2019-09-16 10:58:50 GMT 49.220055 -0.867197 33,975 309 450 -128
2019-09-16 10:58:47 GMT 49.214561 -0.861559 33,975 322 446 64
2019-09-16 10:58:44 GMT 49.210278 -0.856572 33,975 313 448 -192
2019-09-16 10:58:41 GMT 49.205017 -0.849923 34,000 313 448 -192
2019-09-16 10:58:37 GMT 49.199707 -0.842496 34,000 306 453 0
2019-09-16 10:58:34 GMT 49.190399 -0.826866 34,000 306 451 -64
2019-09-16 10:58:31 GMT 49.190399 -0.826866 34,000 306 455 0
2019-09-16 10:58:27 GMT 49.184875 -0.815876 34,000 307 452 -64
2019-09-16 10:58:23 GMT 49.178055 -0.801298 34,000 306 453 0
2019-09-16 10:58:19 GMT 49.174618 -0.793907 34,000 306 453 0
2019-09-16 10:58:16 GMT 49.171188 -0.786438 34,000 306 454 0
2019-09-16 10:58:10 GMT 49.164551 -0.772071 34,000 306 453 0
2019-09-16 10:58:06 GMT 49.160141 -0.762610 34,000 306 453 0
2019-09-16 10:58:02 GMT 49.154972 -0.751335 34,000 306 455 0
2019-09-16 10:57:58 GMT 49.149899 -0.740421 34,000 306 454 0
2019-09-16 10:57:54 GMT 49.146194 -0.732422 34,000 306 454 0
2019-09-16 10:57:51 GMT 49.142265 -0.723941 34,000 306 454 0
2019-09-16 10:57:47 GMT 49.135609 -0.709558 34,000 306 454 0
2019-09-16 10:57:41 GMT 49.130219 -0.697984 34,000 306 454 0
2019-09-16 10:57:37 GMT 49.124249 -0.685055 34,000 306 454 0
2019-09-16 10:57:34 GMT 49.118057 -0.671756 34,000 306 455 0
2019-09-16 10:57:31 GMT 49.118057 -0.671756 34,000 306 454 0
2019-09-16 10:57:28 GMT 49.114334 -0.663757 34,000 306 454 0
2019-09-16 10:57:25 GMT 49.111313 -0.657278 34,000 306 454 0
2019-09-16 10:57:20 GMT 49.104836 -0.643278 34,000 306 454 0
2019-09-16 10:57:17 GMT 49.100052 -0.632982 34,000 306 454 0
2019-09-16 10:57:14 GMT 49.095619 -0.623474 34,000 306 454 0
2019-09-16 10:57:11 GMT 49.093662 -0.619282 34,000 306 454 0
2019-09-16 10:57:05 GMT 49.085144 -0.601068 34,000 306 454 0
2019-09-16 10:57:01 GMT 49.081467 -0.593121 34,000 306 454 0
2019-09-16 10:56:57 GMT 49.075241 -0.579811 34,000 306 454 0
2019-09-16 10:56:54 GMT 49.073044 -0.575092 34,000 306 455 64
2019-09-16 10:56:50 GMT 49.065826 -0.559580 34,000 306 454 0
2019-09-16 10:56:47 GMT 49.063267 -0.554159 34,000 306 454 0
2019-09-16 10:56:44 GMT 49.061508 -0.550373 34,000 306 454 0
2019-09-16 10:56:41 GMT 49.052696 -0.531464 34,000 306 455 0
2019-09-16 10:56:37 GMT 49.052696 -0.531464 34,000 306 454 0
2019-09-16 10:56:34 GMT 49.048004 -0.521428 34,000 306 455 0
2019-09-16 10:56:31 GMT 49.038025 -0.500019 34,000 306 455 0
2019-09-16 10:56:26 GMT 49.038025 -0.500019 34,000 306 454 0
2019-09-16 10:56:23 GMT 49.032261 -0.487663 34,000 306 455 0
2019-09-16 10:56:20 GMT 49.024719 -0.471472 34,000 306 454 0
2019-09-16 10:56:15 GMT 49.024719 -0.471472 34,000 306 455 0
2019-09-16 10:56:12 GMT 49.021729 -0.465088 34,000 306 455 0
2019-09-16 10:56:09 GMT 49.018902 -0.458968 34,000 306 455 0
2019-09-16 10:56:04 GMT 49.010559 -0.441073 34,000 306 455 0
2019-09-16 10:56:01 GMT 49.008133 -0.435861 34,000 306 455 0
2019-09-16 10:55:58 GMT 49.005432 -0.430157 34,000 306 455 0
2019-09-16 10:55:55 GMT 49.001724 -0.422179 34,000 306 455 0
2019-09-16 10:55:51 GMT 48.996460 -0.410861 34,000 306 455 0
2019-09-16 10:55:48 GMT 48.992741 -0.402880 34,000 306 455 0
2019-09-16 10:55:45 GMT 48.989685 -0.396212 34,000 306 455 0
2019-09-16 10:55:41 GMT 48.983894 -0.383799 34,000 306 455 64
2019-09-16 10:55:38 GMT 48.980347 -0.376070 34,000 305 455 0
2019-09-16 10:55:34 GMT 48.975559 -0.365801 34,000 305 455 0
2019-09-16 10:55:29 GMT 48.969452 -0.352548 34,000 305 456 -64
2019-09-16 10:55:25 GMT 48.953842 -0.318533 34,000 306 454 64
2019-09-16 10:55:17 GMT 48.953842 -0.318533 34,000 306 455 64
2019-09-16 10:55:09 GMT 48.945442 -0.300751 34,000 299 456 0
2019-09-16 10:55:06 GMT 48.940228 -0.289909 34,000 306 454 0
2019-09-16 10:55:02 GMT 48.935394 -0.279658 34,000 304 454 0
2019-09-16 10:54:58 GMT 48.931274 -0.270433 34,000 302 455 0
2019-09-16 10:54:54 GMT 48.927658 -0.262193 34,000 303 454 0
2019-09-16 10:54:51 GMT 48.923721 -0.252756 34,000 292 458 -64
2019-09-16 10:54:47 GMT 48.920242 -0.243953 34,000 300 456 0
2019-09-16 10:54:43 GMT 48.915836 -0.232520 34,000 299 456 0
2019-09-16 10:54:40 GMT 48.912598 -0.223741 34,000 292 458 -64
2019-09-16 10:54:36 GMT 48.908157 -0.210994 34,000 293 458 0
2019-09-16 10:54:32 GMT 48.904755 -0.200862 34,000 296 457 0
2019-09-16 10:54:29 GMT 48.901821 -0.191610 34,000 293 458 0
2019-09-16 10:54:26 GMT 48.899185 -0.183035 34,000 294 457 0
2019-09-16 10:54:22 GMT 48.892548 -0.159020 34,000 288 459 0
2019-09-16 10:54:19 GMT 48.892548 -0.159020 34,000 288 459 64
2019-09-16 10:54:14 GMT 48.889347 -0.145930 34,000 288 459 0
2019-09-16 10:54:09 GMT 48.886459 -0.132611 34,000 288 460 -64
2019-09-16 10:54:05 GMT 48.883156 -0.116802 34,000 288 459 -64
2019-09-16 10:54:01 GMT 48.881332 -0.108103 34,000 288 459 0
2019-09-16 10:53:58 GMT 48.879524 -0.099311 34,000 288 459 0
2019-09-16 10:53:55 GMT 48.876938 -0.086905 34,000 288 459 0
2019-09-16 10:53:52 GMT 48.875656 -0.080778 34,000 288 459 0
2019-09-16 10:53:49 GMT 48.873657 -0.071122 34,000 288 459 0
2019-09-16 10:53:46 GMT 48.871284 -0.059774 34,000 288 459 64
2019-09-16 10:53:42 GMT 48.869236 -0.049944 34,000 288 459 64
2019-09-16 10:53:39 GMT 48.866676 -0.037657 34,000 288 459 0
2019-09-16 10:53:36 GMT 48.864944 -0.029226 34,000 288 459 0
2019-09-16 10:53:33 GMT 48.863323 -0.021467 34,000 288 459 0
2019-09-16 10:53:30 GMT 48.861374 -0.012113 34,000 288 459 0
2019-09-16 10:53:26 GMT 48.856888 0.009367 34,000 288 459 0
2019-09-16 10:53:23 GMT 48.856888 0.009367 34,000 288 459 0
2019-09-16 10:53:20 GMT 48.855057 0.018240 34,000 288 459 0
2019-09-16 10:53:16 GMT 48.852127 0.032325 34,000 288 459 0
2019-09-16 10:53:13 GMT 48.850800 0.038597 34,000 288 459 0
2019-09-16 10:53:10 GMT 48.847916 0.052402 34,000 288 459 0
2019-09-16 10:53:07 GMT 48.846725 0.058101 34,000 288 458 0
2019-09-16 10:53:04 GMT 48.845123 0.065918 34,000 288 459 -64
2019-09-16 10:53:00 GMT 48.842655 0.077844 34,000 288 459 -64
2019-09-16 10:52:57 GMT 48.840328 0.088830 34,000 288 459 -64
2019-09-16 10:52:54 GMT 48.838257 0.098807 34,000 288 458 0
2019-09-16 10:52:50 GMT 48.836044 0.109357 34,000 288 458 0
2019-09-16 10:52:47 GMT 48.833862 0.119934 34,000 288 458 0
2019-09-16 10:52:44 GMT 48.831573 0.130920 34,000 288 458 0
2019-09-16 10:52:41 GMT 48.829651 0.140146 34,000 288 459 0
2019-09-16 10:52:38 GMT 48.826317 0.156194 34,000 288 459 0
2019-09-16 10:52:35 GMT 48.824295 0.165851 34,000 288 458 0
2019-09-16 10:52:32 GMT 48.824295 0.165851 34,000 288 457 0
2019-09-16 10:52:26 GMT 48.819889 0.187129 34,000 288 457 0
2019-09-16 10:52:23 GMT 48.818493 0.193851 34,000 288 457 0
2019-09-16 10:52:17 GMT 48.815277 0.209233 34,000 288 458 0
2019-09-16 10:52:14 GMT 48.812534 0.222545 34,000 288 457 0
2019-09-16 10:52:06 GMT 48.805618 0.256066 34,000 288 458 0
2019-09-16 10:52:03 GMT 48.805618 0.256066 34,000 288 458 0
2019-09-16 10:51:56 GMT 48.800858 0.279306 34,000 288 458 0
2019-09-16 10:51:52 GMT 48.798801 0.289548 34,000 288 458 0
2019-09-16 10:51:48 GMT 48.796383 0.301474 34,000 288 458 0
2019-09-16 10:51:44 GMT 48.794540 0.310505 34,000 288 457 0
2019-09-16 10:51:40 GMT 48.790878 0.328252 34,000 288 457 0
2019-09-16 10:51:35 GMT 48.787857 0.342900 34,000 288 458 0
2019-09-16 10:51:29 GMT 48.781578 0.372957 34,000 288 457 0
2019-09-16 10:51:24 GMT 48.781578 0.372957 34,000 288 456 -64
2019-09-16 10:51:20 GMT 48.779068 0.385014 34,000 288 457 0
2019-09-16 10:51:17 GMT 48.777157 0.393990 34,000 288 457 0
2019-09-16 10:51:14 GMT 48.774967 0.404687 34,000 288 457 0
2019-09-16 10:51:11 GMT 48.773384 0.412276 34,000 288 457 0
2019-09-16 10:51:08 GMT 48.770733 0.424781 34,000 288 457 -64
2019-09-16 10:51:04 GMT 48.768822 0.433888 34,000 288 456 -64
2019-09-16 10:51:01 GMT 48.766914 0.442995 34,000 286 456 -64
2019-09-16 10:50:57 GMT 48.763733 0.458045 34,000 288 456 64
2019-09-16 10:50:54 GMT 48.761887 0.466702 34,000 288 456 0
2019-09-16 10:50:46 GMT 48.755081 0.498751 34,000 289 456 64
2019-09-16 10:50:43 GMT 48.755081 0.498751 34,000 289 456 64
2019-09-16 10:50:32 GMT 48.748245 0.530018 34,000 289 456 128
2019-09-16 10:50:29 GMT 48.746292 0.538964 34,000 289 456 128
2019-09-16 10:50:24 GMT 48.742428 0.556978 34,000 286 456 -64
2019-09-16 10:50:21 GMT 48.740936 0.564639 34,000 282 458 0
2019-09-16 10:50:13 GMT 48.737122 0.588564 34,000 282 458 0
2019-09-16 10:50:10 GMT 48.735817 0.598249 34,000 282 458 0
2019-09-16 10:50:01 GMT 48.731781 0.629531 34,000 281 458 0
2019-09-16 10:49:52 GMT 48.728485 0.655236 34,000 282 458 0
2019-09-16 10:49:49 GMT 48.727390 0.663878 34,000 282 458 0
2019-09-16 10:49:43 GMT 48.724274 0.687913 34,000 282 458 64
2019-09-16 10:49:39 GMT 48.722828 0.699077 34,000 282 458 0
2019-09-16 10:49:33 GMT 48.720978 0.713689 34,000 282 458 0
2019-09-16 10:49:30 GMT 48.719524 0.724809 34,000 282 458 0
2019-09-16 10:49:27 GMT 48.718414 0.733478 34,000 282 458 0
2019-09-16 10:49:22 GMT 48.714821 0.761237 34,000 282 458 0
2019-09-16 10:49:18 GMT 48.712959 0.775765 34,000 281 458 0
2019-09-16 10:49:14 GMT 48.712959 0.775765 34,000 281 458 0
2019-09-16 10:49:09 GMT 48.710587 0.794268 34,000 282 458 0
2019-09-16 10:49:04 GMT 48.708939 0.807002 34,000 282 459 0
2019-09-16 10:49:01 GMT 48.707748 0.816087 34,000 282 458 0
2019-09-16 10:48:57 GMT 48.705688 0.832144 34,000 282 458 0
2019-09-16 10:48:49 GMT 48.702858 0.853970 34,000 282 458 0
2019-09-16 10:48:46 GMT 48.701599 0.863439 33,975 282 459 0
2019-09-16 10:48:42 GMT 48.699970 0.876015 33,975 282 459 0
2019-09-16 10:48:39 GMT 48.698685 0.885597 33,975 282 459 0
2019-09-16 10:48:35 GMT 48.696899 0.899289 33,975 282 459 0
2019-09-16 10:48:31 GMT 48.694931 0.914189 34,000 282 459 -64
2019-09-16 10:48:28 GMT 48.694336 0.918908 34,000 282 459 -64
2019-09-16 10:48:25 GMT 48.692642 0.931796 34,000 282 459 -64
2019-09-16 10:48:22 GMT 48.690430 0.948655 34,000 282 459 -64
2019-09-16 10:48:19 GMT 48.690430 0.948655 34,000 282 459 -64
2019-09-16 10:48:15 GMT 48.688751 0.961231 34,000 282 459 0
2019-09-16 10:48:11 GMT 48.687286 0.972360 34,000 282 459 0
2019-09-16 10:48:08 GMT 48.686188 0.980600 34,000 282 459 0
2019-09-16 10:48:04 GMT 48.684284 0.995202 34,000 282 459 0
2019-09-16 10:47:59 GMT 48.681026 1.019705 34,000 282 459 0
2019-09-16 10:47:56 GMT 48.681026 1.019705 34,000 282 460 0
2019-09-16 10:47:52 GMT 48.678085 1.042222 34,000 282 459 0
2019-09-16 10:47:49 GMT 48.678085 1.042222 34,000 282 459 0
2019-09-16 10:47:46 GMT 48.676849 1.051378 34,000 282 459 0
2019-09-16 10:47:43 GMT 48.675888 1.058913 34,000 282 461 64
2019-09-16 10:47:39 GMT 48.674149 1.071801 34,000 282 461 0
2019-09-16 10:47:36 GMT 48.672729 1.082505 34,000 282 460 0
2019-09-16 10:47:28 GMT 48.669247 1.108824 34,000 282 460 0
2019-09-16 10:47:24 GMT 48.667740 1.120253 34,000 282 460 0
2019-09-16 10:47:18 GMT 48.664639 1.143735 34,000 282 461 0
2019-09-16 10:47:13 GMT 48.662914 1.156672 34,000 282 461 64
2019-09-16 10:47:07 GMT 48.660450 1.174959 34,000 282 461 64
2019-09-16 10:47:04 GMT 48.659424 1.182476 34,000 282 461 64
2019-09-16 10:47:01 GMT 48.657761 1.194974 34,000 282 461 0
2019-09-16 10:46:56 GMT 48.656075 1.207701 34,000 282 461 0
2019-09-16 10:46:53 GMT 48.654831 1.217018 34,000 282 461 0
2019-09-16 10:46:50 GMT 48.653561 1.226638 34,000 282 461 0
2019-09-16 10:46:47 GMT 48.652039 1.237863 34,000 282 461 0
2019-09-16 10:46:44 GMT 48.650997 1.245575 34,000 282 461 0
2019-09-16 10:46:41 GMT 48.649788 1.254682 34,000 282 462 0
2019-09-16 10:46:37 GMT 48.648056 1.267442 34,000 282 461 0
2019-09-16 10:46:34 GMT 48.646576 1.278317 34,000 282 461 0
2019-09-16 10:46:29 GMT 48.644577 1.293288 34,000 282 462 0
2019-09-16 10:46:25 GMT 48.641647 1.315402 34,000 282 461 64
2019-09-16 10:46:22 GMT 48.640152 1.326599 34,000 282 461 64
2019-09-16 10:46:19 GMT 48.640152 1.326599 34,000 282 461 0
2019-09-16 10:46:15 GMT 48.638058 1.342356 34,000 282 461 0
2019-09-16 10:46:12 GMT 48.637218 1.348355 34,000 282 461 0
2019-09-16 10:46:09 GMT 48.636246 1.355755 34,000 282 461 0
2019-09-16 10:46:06 GMT 48.633636 1.375098 34,000 282 461 0
2019-09-16 10:45:59 GMT 48.631668 1.389418 34,000 282 461 64
2019-09-16 10:45:56 GMT 48.629025 1.408780 34,000 282 461 0
2019-09-16 10:45:52 GMT 48.629025 1.408780 34,000 282 461 0
2019-09-16 10:45:47 GMT 48.626038 1.430617 34,000 282 461 0
2019-09-16 10:45:42 GMT 48.623116 1.452219 34,000 282 461 0
2019-09-16 10:45:39 GMT 48.621414 1.464985 34,000 282 461 0
2019-09-16 10:45:36 GMT 48.621414 1.464985 34,000 282 461 0
2019-09-16 10:45:31 GMT 48.619263 1.481042 34,000 282 461 0
2019-09-16 10:45:28 GMT 48.618256 1.488225 34,000 282 460 0
2019-09-16 10:45:23 GMT 48.616379 1.502099 34,000 282 461 0
2019-09-16 10:45:20 GMT 48.615097 1.511536 34,000 282 461 0
2019-09-16 10:45:17 GMT 48.613338 1.524570 34,000 282 461 0
2019-09-16 10:45:14 GMT 48.612408 1.531219 34,000 282 461 0
2019-09-16 10:45:11 GMT 48.609474 1.552903 34,000 282 461 0
2019-09-16 10:45:08 GMT 48.609474 1.552903 34,000 282 461 0
2019-09-16 10:45:04 GMT 48.606541 1.574297 34,000 282 461 0
2019-09-16 10:45:01 GMT 48.606541 1.574297 34,000 282 460 0
2019-09-16 10:44:54 GMT 48.604202 1.591398 34,000 282 460 0
2019-09-16 10:44:50 GMT 48.602234 1.605835 34,000 282 460 0
2019-09-16 10:44:47 GMT 48.600952 1.614990 34,000 282 460 0
2019-09-16 10:44:43 GMT 48.599258 1.627526 34,000 282 460 0
2019-09-16 10:44:40 GMT 48.597748 1.638583 34,000 282 460 0
2019-09-16 10:44:37 GMT 48.596649 1.646400 34,000 282 460 0
2019-09-16 10:44:31 GMT 48.594067 1.665079 34,000 282 460 0
2019-09-16 10:44:28 GMT 48.592621 1.675626 34,000 282 460 0
2019-09-16 10:44:24 GMT 48.590572 1.690521 34,000 282 460 0
2019-09-16 10:44:21 GMT 48.589924 1.695219 34,000 282 460 0
2019-09-16 10:44:18 GMT 48.586384 1.720661 34,000 282 460 0
2019-09-16 10:44:15 GMT 48.586384 1.720661 34,000 282 460 0
2019-09-16 10:44:12 GMT 48.585266 1.728467 34,000 282 459 0
2019-09-16 10:44:07 GMT 48.583740 1.739572 34,000 282 459 0
2019-09-16 10:44:03 GMT 48.581776 1.753548 34,000 282 459 0
2019-09-16 10:44:00 GMT 48.578938 1.773931 34,000 282 459 0
2019-09-16 10:43:56 GMT 48.578938 1.773931 34,000 282 459 0
2019-09-16 10:43:52 GMT 48.575363 1.799434 34,000 282 459 0
2019-09-16 10:43:49 GMT 48.575363 1.799434 34,000 282 459 0
2019-09-16 10:43:46 GMT 48.574467 1.805805 34,000 282 459 0
2019-09-16 10:43:42 GMT 48.571487 1.827128 34,000 282 458 0
2019-09-16 10:43:36 GMT 48.570099 1.837252 34,000 282 458 0
2019-09-16 10:43:29 GMT 48.567123 1.858521 34,000 282 458 0
2019-09-16 10:43:26 GMT 48.565567 1.869436 34,000 283 458 0
2019-09-16 10:43:21 GMT 48.563576 1.883649 34,000 282 458 0
2019-09-16 10:43:18 GMT 48.562317 1.892606 34,000 283 458 0
2019-09-16 10:43:15 GMT 48.558884 1.917255 34,000 283 458 0
2019-09-16 10:43:11 GMT 48.558884 1.917255 34,000 283 458 0
2019-09-16 10:43:07 GMT 48.557236 1.928805 34,000 283 458 0
2019-09-16 10:43:04 GMT 48.556046 1.936833 34,000 283 458 0
2019-09-16 10:42:58 GMT 48.553299 1.956482 34,000 283 457 0
2019-09-16 10:42:55 GMT 48.551926 1.966201 34,000 283 458 0
2019-09-16 10:42:49 GMT 48.549179 1.985497 34,000 283 458 0
2019-09-16 10:42:45 GMT 48.547466 1.997488 34,000 283 457 0
2019-09-16 10:42:42 GMT 48.545837 2.008808 34,000 283 457 0
2019-09-16 10:42:38 GMT 48.544327 2.019442 34,000 283 457 0
2019-09-16 10:42:34 GMT 48.542542 2.032189 34,000 283 457 0
2019-09-16 10:42:31 GMT 48.541214 2.041485 34,000 283 454 0
2019-09-16 10:42:27 GMT 48.538147 2.062965 34,000 282 456 0
2019-09-16 10:42:24 GMT 48.538147 2.062965 34,000 282 456 0
2019-09-16 10:42:20 GMT 48.536453 2.075078 34,000 282 456 0
2019-09-16 10:42:17 GMT 48.535080 2.084726 34,000 282 456 0
2019-09-16 10:42:14 GMT 48.533936 2.092755 34,000 283 453 0
2019-09-16 10:42:11 GMT 48.532242 2.104868 34,000 282 455 0
2019-09-16 10:42:07 GMT 48.530663 2.115880 34,000 282 455 0
2019-09-16 10:42:03 GMT 48.528854 2.128742 34,000 282 455 0
2019-09-16 10:42:00 GMT 48.527775 2.136624 34,000 282 455 0
2019-09-16 10:41:56 GMT 48.526237 2.147538 34,000 282 455 0
2019-09-16 10:41:53 GMT 48.524422 2.160548 34,000 283 455 0
2019-09-16 10:41:50 GMT 48.523041 2.170293 34,000 283 454 0
2019-09-16 10:41:47 GMT 48.522095 2.176883 34,000 283 455 -64
2019-09-16 10:41:44 GMT 48.520374 2.188954 34,000 283 454 0
2019-09-16 10:41:41 GMT 48.519161 2.197338 34,000 283 454 0
2019-09-16 10:41:38 GMT 48.518051 2.205224 34,000 283 454 0
2019-09-16 10:41:35 GMT 48.516815 2.213816 34,000 283 454 0
2019-09-16 10:41:31 GMT 48.515030 2.226140 34,000 283 453 0
2019-09-16 10:41:28 GMT 48.513577 2.236224 34,000 283 454 0
2019-09-16 10:41:25 GMT 48.511642 2.249592 34,000 283 454 0
2019-09-16 10:41:21 GMT 48.509712 2.263039 34,000 283 454 0
2019-09-16 10:41:18 GMT 48.508759 2.269663 34,000 283 454 0
2019-09-16 10:41:15 GMT 48.508072 2.274311 34,000 283 454 0
2019-09-16 10:41:12 GMT 48.506561 2.284804 34,000 283 454 0
2019-09-16 10:41:09 GMT 48.505478 2.292312 34,000 283 454 0
2019-09-16 10:41:05 GMT 48.503056 2.309008 34,000 283 454 0
2019-09-16 10:41:02 GMT 48.501709 2.318397 34,000 283 454 0
2019-09-16 10:40:59 GMT 48.500748 2.324876 34,000 283 454 0
2019-09-16 10:40:54 GMT 48.498688 2.339384 34,000 283 454 0
2019-09-16 10:40:49 GMT 48.496399 2.355194 34,000 283 453 0
2019-09-16 10:40:46 GMT 48.494724 2.366903 34,000 283 454 0
2019-09-16 10:40:43 GMT 48.491364 2.390231 34,000 283 453 0
2019-09-16 10:40:39 GMT 48.491364 2.390231 34,000 283 453 0
2019-09-16 10:40:34 GMT 48.489555 2.402681 34,000 283 453 0
2019-09-16 10:40:31 GMT 48.487370 2.417426 34,000 283 453 0
2019-09-16 10:40:27 GMT 48.486671 2.422341 34,000 283 453 0
2019-09-16 10:40:24 GMT 48.484573 2.436507 34,000 283 453 0
2019-09-16 10:40:20 GMT 48.483490 2.444035 34,000 283 453 64
2019-09-16 10:40:17 GMT 48.481922 2.454722 34,000 283 453 0
2019-09-16 10:40:14 GMT 48.480743 2.462487 34,000 283 453 0
2019-09-16 10:40:11 GMT 48.479004 2.474530 34,000 283 453 64
2019-09-16 10:40:08 GMT 48.477814 2.482558 34,000 283 453 0
2019-09-16 10:40:05 GMT 48.476669 2.490234 34,000 283 453 0
2019-09-16 10:40:02 GMT 48.474930 2.502207 34,000 283 453 0
2019-09-16 10:39:58 GMT 48.473236 2.513616 34,000 283 453 0
2019-09-16 10:39:54 GMT 48.471359 2.526222 34,000 283 453 0
2019-09-16 10:39:51 GMT 48.469986 2.535447 34,000 283 453 0
2019-09-16 10:39:47 GMT 48.468475 2.545870 34,000 283 453 0
2019-09-16 10:39:44 GMT 48.466930 2.556201 34,000 283 453 0
2019-09-16 10:39:38 GMT 48.464127 2.575167 34,000 283 454 0
2019-09-16 10:39:33 GMT 48.461998 2.589449 34,000 283 453 0
2019-09-16 10:39:30 GMT 48.459091 2.609323 34,000 283 453 0
2019-09-16 10:39:22 GMT 48.457031 2.623127 34,000 283 453 0
2019-09-16 10:39:17 GMT 48.454872 2.637442 34,000 283 453 0
2019-09-16 10:39:12 GMT 48.452454 2.653776 34,000 283 454 0
2019-09-16 10:39:07 GMT 48.448334 2.681650 34,000 283 454 0
2019-09-16 10:39:04 GMT 48.448334 2.681650 34,000 283 454 0
2019-09-16 10:39:01 GMT 48.447235 2.688693 34,000 283 454 0
2019-09-16 10:38:56 GMT 48.444992 2.704116 34,000 283 454 0
2019-09-16 10:38:51 GMT 48.442631 2.719984 34,000 283 454 0
2019-09-16 10:38:46 GMT 48.440208 2.736318 34,000 283 454 0
2019-09-16 10:38:43 GMT 48.438812 2.746019 34,000 283 454 0
2019-09-16 10:38:39 GMT 48.436432 2.762005 34,000 283 454 0
2019-09-16 10:38:33 GMT 48.434067 2.777951 34,000 284 455 0
2019-09-16 10:38:30 GMT 48.432995 2.785323 34,000 283 454 0
2019-09-16 10:38:24 GMT 48.429016 2.812570 34,000 283 454 0
2019-09-16 10:38:21 GMT 48.427322 2.823979 34,000 283 454 0
2019-09-16 10:38:17 GMT 48.427322 2.823979 34,000 283 454 0
2019-09-16 10:38:10 GMT 48.424381 2.844158 34,000 283 454 0
2019-09-16 10:38:07 GMT 48.423035 2.853121 33,975 283 455 0
2019-09-16 10:38:04 GMT 48.419907 2.874545 33,975 283 455 0
2019-09-16 10:37:58 GMT 48.418331 2.885501 33,975 283 455 0
2019-09-16 10:37:53 GMT 48.416187 2.900318 33,975 283 454 -64
2019-09-16 10:37:50 GMT 48.415211 2.907113 33,975 283 454 -64
2019-09-16 10:37:47 GMT 48.413773 2.916870 34,000 283 455 -64
2019-09-16 10:37:42 GMT 48.411392 2.932505 34,000 284 455 -64
2019-09-16 10:37:39 GMT 48.409531 2.944697 34,000 284 454 -64
2019-09-16 10:37:35 GMT 48.408417 2.951590 34,000 286 454 0
2019-09-16 10:37:31 GMT 48.405807 2.967610 34,000 284 455 0
2019-09-16 10:37:27 GMT 48.404320 2.976861 34,000 289 452 0
2019-09-16 10:37:23 GMT 48.402271 2.989365 34,000 284 454 0
2019-09-16 10:37:18 GMT 48.399353 3.007648 34,000 284 454 0
2019-09-16 10:37:15 GMT 48.397896 3.016687 34,000 284 454 0
2019-09-16 10:37:10 GMT 48.395847 3.029552 34,000 284 454 0
2019-09-16 10:37:07 GMT 48.393986 3.041189 34,000 284 454 0
2019-09-16 10:37:03 GMT 48.392532 3.050255 34,000 284 454 0
2019-09-16 10:36:57 GMT 48.389561 3.069089 34,000 284 454 0
2019-09-16 10:36:54 GMT 48.388165 3.077690 34,000 284 454 0
2019-09-16 10:36:50 GMT 48.386078 3.090961 34,000 284 454 0
2019-09-16 10:36:46 GMT 48.384109 3.103215 34,000 284 454 0
2019-09-16 10:36:42 GMT 48.380173 3.127723 34,000 285 454 0
2019-09-16 10:36:36 GMT 48.379166 3.134132 34,000 284 454 64
2019-09-16 10:36:32 GMT 48.376694 3.149837 34,000 284 454 64
2019-09-16 10:36:29 GMT 48.375690 3.156401 34,000 284 454 64
2019-09-16 10:36:25 GMT 48.373672 3.169133 34,000 284 454 64
2019-09-16 10:36:21 GMT 48.371639 3.182494 34,000 283 454 64
2019-09-16 10:36:18 GMT 48.370613 3.188999 34,000 284 454 64
2019-09-16 10:36:14 GMT 48.368729 3.201388 33,975 289 453 0
2019-09-16 10:36:11 GMT 48.367588 3.208658 33,975 289 453 0
2019-09-16 10:36:04 GMT 48.363373 3.233220 34,000 288 453 -64
2019-09-16 10:36:01 GMT 48.361027 3.245087 34,000 289 453 0
2019-09-16 10:35:58 GMT 48.359116 3.254121 34,000 289 453 -64
2019-09-16 10:35:54 GMT 48.356880 3.264240 34,000 289 453 -64
2019-09-16 10:35:50 GMT 48.354813 3.273644 34,000 289 452 0
2019-09-16 10:35:46 GMT 48.352413 3.284551 34,000 289 453 0
2019-09-16 10:35:43 GMT 48.350086 3.294959 34,000 289 453 0
2019-09-16 10:35:37 GMT 48.346455 3.311366 34,000 289 453 0
2019-09-16 10:35:33 GMT 48.342777 3.328062 34,000 289 453 0
2019-09-16 10:35:29 GMT 48.340302 3.339280 34,000 289 453 0
2019-09-16 10:35:26 GMT 48.338974 3.345196 34,000 289 453 0
2019-09-16 10:35:22 GMT 48.336182 3.357732 34,000 289 452 0
2019-09-16 10:35:14 GMT 48.330112 3.385018 34,000 289 453 0
2019-09-16 10:35:10 GMT 48.328262 3.393437 34,000 289 453 0
2019-09-16 10:35:03 GMT 48.323456 3.414917 34,000 289 453 0
2019-09-16 10:35:00 GMT 48.321808 3.422382 34,000 289 452 0
2019-09-16 10:34:53 GMT 48.316940 3.443925 34,000 289 452 0
2019-09-16 10:34:49 GMT 48.314568 3.454622 34,000 289 452 0
2019-09-16 10:34:43 GMT 48.309399 3.477462 34,000 289 452 0
2019-09-16 10:34:37 GMT 48.306335 3.490976 34,000 289 452 0
2019-09-16 10:34:34 GMT 48.303864 3.501963 34,000 289 452 0
2019-09-16 10:34:31 GMT 48.302078 3.509709 34,000 289 452 0
2019-09-16 10:34:28 GMT 48.298233 3.526893 34,000 289 452 64
2019-09-16 10:34:25 GMT 48.298233 3.526893 34,000 289 452 0
2019-09-16 10:34:18 GMT 48.293385 3.548439 34,000 289 452 64
2019-09-16 10:34:12 GMT 48.288437 3.570486 34,000 289 452 0
2019-09-16 10:34:08 GMT 48.286377 3.579712 34,000 289 452 0
2019-09-16 10:34:05 GMT 48.284409 3.588304 34,000 289 450 0
2019-09-16 10:33:59 GMT 48.280655 3.604924 34,000 289 451 0
2019-09-16 10:33:56 GMT 48.278954 3.612478 34,000 289 451 0
2019-09-16 10:33:52 GMT 48.272461 3.641404 34,000 289 451 0
2019-09-16 10:33:46 GMT 48.272461 3.641404 34,000 289 451 0
2019-09-16 10:33:40 GMT 48.268341 3.659604 34,000 289 451 0
2019-09-16 10:33:37 GMT 48.266338 3.668494 34,000 289 451 0
2019-09-16 10:33:34 GMT 48.263966 3.678830 34,000 289 451 0
2019-09-16 10:33:30 GMT 48.261215 3.690973 34,000 289 451 0
2019-09-16 10:33:25 GMT 48.257725 3.706368 34,000 289 451 0
2019-09-16 10:33:20 GMT 48.254288 3.721619 34,000 289 451 0
2019-09-16 10:33:16 GMT 48.252182 3.730774 34,000 289 451 0
2019-09-16 10:33:13 GMT 48.250416 3.738604 34,000 289 451 0
2019-09-16 10:33:09 GMT 48.247810 3.750169 34,000 289 450 0
2019-09-16 10:33:06 GMT 48.242661 3.772747 34,000 289 450 0
2019-09-16 10:33:03 GMT 48.242661 3.772747 34,000 289 450 0
2019-09-16 10:32:59 GMT 48.240372 3.782818 34,000 289 450 0
2019-09-16 10:32:56 GMT 48.238266 3.792090 34,000 289 450 0
2019-09-16 10:32:49 GMT 48.233688 3.812326 34,000 289 450 0
2019-09-16 10:32:44 GMT 48.230957 3.824254 34,000 289 450 0
2019-09-16 10:32:41 GMT 48.228863 3.833433 34,000 289 450 0
2019-09-16 10:32:38 GMT 48.226582 3.843408 34,000 289 450 0
2019-09-16 10:32:35 GMT 48.223755 3.855919 34,000 289 450 0
2019-09-16 10:32:29 GMT 48.220734 3.869230 34,000 289 450 0
2019-09-16 10:32:23 GMT 48.216526 3.887570 34,000 289 450 0
2019-09-16 10:32:17 GMT 48.212196 3.906435 34,000 289 450 0
2019-09-16 10:32:12 GMT 48.209030 3.920312 34,000 289 450 0
2019-09-16 10:32:08 GMT 48.204575 3.939866 34,000 289 450 0
2019-09-16 10:32:01 GMT 48.201908 3.951464 34,000 289 450 0
2019-09-16 10:31:55 GMT 48.193810 3.986736 34,000 289 449 0
2019-09-16 10:31:49 GMT 48.190750 4.000150 34,000 290 448 0
2019-09-16 10:31:46 GMT 48.188553 4.009798 34,000 289 449 0
2019-09-16 10:31:42 GMT 48.188553 4.009798 34,000 289 449 0
2019-09-16 10:31:39 GMT 48.187180 4.015644 34,000 289 449 0
2019-09-16 10:31:31 GMT 48.181229 4.041490 34,000 290 449 0
2019-09-16 10:31:28 GMT 48.179703 4.048101 34,000 290 449 0
2019-09-16 10:31:23 GMT 48.175919 4.064660 34,000 289 449 0
2019-09-16 10:31:20 GMT 48.174133 4.072266 34,000 289 449 0
2019-09-16 10:31:17 GMT 48.172070 4.081204 34,000 290 448 0
2019-09-16 10:31:13 GMT 48.168777 4.095436 34,000 290 448 0
2019-09-16 10:31:09 GMT 48.166809 4.104044 34,000 290 448 0
2019-09-16 10:31:06 GMT 48.164387 4.114597 34,000 290 448 64
2019-09-16 10:31:02 GMT 48.161636 4.126493 34,000 290 448 64
2019-09-16 10:30:59 GMT 48.159851 4.134087 34,000 290 448 0
2019-09-16 10:30:56 GMT 48.157745 4.143150 34,000 290 448 0
2019-09-16 10:30:53 GMT 48.155499 4.152973 34,000 290 448 0
2019-09-16 10:30:49 GMT 48.152424 4.166142 34,000 290 448 0
2019-09-16 10:30:42 GMT 48.148327 4.184030 34,000 290 448 0
2019-09-16 10:30:38 GMT 48.145393 4.196636 34,000 290 448 0
2019-09-16 10:30:32 GMT 48.140926 4.215933 34,000 290 448 0
2019-09-16 10:30:29 GMT 48.137386 4.231145 34,000 290 448 0
2019-09-16 10:30:22 GMT 48.134995 4.241547 34,000 290 449 0
2019-09-16 10:30:19 GMT 48.132919 4.250512 34,000 290 448 0
2019-09-16 10:30:15 GMT 48.128220 4.270523 34,000 290 449 0
2019-09-16 10:30:09 GMT 48.126076 4.279738 34,000 290 448 0
2019-09-16 10:30:06 GMT 48.123608 4.290232 34,000 290 448 0
2019-09-16 10:30:02 GMT 48.121399 4.299774 34,000 290 449 0
2019-09-16 10:29:54 GMT 48.116043 4.322845 34,000 290 448 0
2019-09-16 10:29:51 GMT 48.113571 4.333351 34,000 290 448 0
2019-09-16 10:29:48 GMT 48.109085 4.352303 34,000 290 448 0
2019-09-16 10:29:44 GMT 48.109085 4.352303 34,000 290 448 0
2019-09-16 10:29:41 GMT 48.106705 4.362534 34,000 290 448 0
2019-09-16 10:29:35 GMT 48.102310 4.381210 34,000 290 448 0
2019-09-16 10:29:32 GMT 48.100616 4.388489 34,000 290 448 0
2019-09-16 10:29:24 GMT 48.095024 4.412278 34,000 290 448 0
2019-09-16 10:29:21 GMT 48.088120 4.441566 34,000 290 447 0
2019-09-16 10:29:14 GMT 48.088120 4.441566 34,000 290 447 0
2019-09-16 10:29:10 GMT 48.085342 4.453407 34,000 290 447 0
2019-09-16 10:29:01 GMT 48.079617 4.477563 34,000 290 447 0
2019-09-16 10:28:58 GMT 48.077499 4.486679 34,000 290 447 0
2019-09-16 10:28:50 GMT 48.071236 4.513620 34,000 290 447 0
2019-09-16 10:28:47 GMT 48.070213 4.518057 34,000 289 447 0
2019-09-16 10:28:43 GMT 48.064255 4.543973 34,000 290 447 0
2019-09-16 10:28:39 GMT 48.064255 4.543973 34,000 289 447 0
2019-09-16 10:28:36 GMT 48.062160 4.552988 34,000 289 447 0
2019-09-16 10:28:33 GMT 48.060249 4.561228 34,000 290 447 0
2019-09-16 10:28:30 GMT 48.058250 4.569960 34,000 290 447 0
2019-09-16 10:28:27 GMT 48.056152 4.578975 34,000 290 447 0
2019-09-16 10:28:23 GMT 48.052849 4.593271 34,000 290 447 0
2019-09-16 10:28:19 GMT 48.050987 4.601440 34,000 290 447 0
2019-09-16 10:28:16 GMT 48.048286 4.613061 34,000 290 447 0
2019-09-16 10:28:10 GMT 48.044750 4.628202 34,000 290 447 0
2019-09-16 10:28:07 GMT 48.042709 4.637123 34,000 290 447 0
2019-09-16 10:28:03 GMT 48.040512 4.646583 34,000 290 448 0
2019-09-16 10:28:00 GMT 48.038040 4.657173 34,000 290 447 0
2019-09-16 10:27:57 GMT 48.036346 4.664452 34,000 290 447 0
2019-09-16 10:27:54 GMT 48.034149 4.674065 34,000 290 447 0
2019-09-16 10:27:51 GMT 48.031082 4.687180 34,000 290 447 0
2019-09-16 10:27:48 GMT 48.029804 4.692852 34,000 290 447 64
2019-09-16 10:27:44 GMT 48.027466 4.702835 34,000 290 447 64
2019-09-16 10:27:40 GMT 48.024731 4.714614 34,000 290 447 0
2019-09-16 10:27:37 GMT 48.022034 4.726304 34,000 290 447 -64
2019-09-16 10:27:33 GMT 48.020325 4.733734 34,000 290 447 0
2019-09-16 10:27:30 GMT 48.018036 4.743622 34,000 290 447 -64
2019-09-16 10:27:26 GMT 48.014694 4.758110 34,000 290 447 0
2019-09-16 10:27:23 GMT 48.009613 4.779945 34,000 290 447 0
2019-09-16 10:27:18 GMT 48.009613 4.779945 34,000 290 447 0
2019-09-16 10:27:15 GMT 48.005878 4.796096 34,000 290 447 0
2019-09-16 10:27:12 GMT 48.005878 4.796096 34,000 290 447 0
2019-09-16 10:27:07 GMT 48.001408 4.815322 34,000 290 447 64
2019-09-16 10:27:03 GMT 47.999359 4.824165 34,000 290 447 64
2019-09-16 10:27:00 GMT 47.998013 4.830111 34,000 290 447 64
2019-09-16 10:26:57 GMT 47.995358 4.841520 34,000 290 447 0
2019-09-16 10:26:54 GMT 47.993820 4.848140 34,000 290 447 0
2019-09-16 10:26:50 GMT 47.988144 4.872437 34,000 290 447 0
2019-09-16 10:26:46 GMT 47.988144 4.872437 34,000 290 447 0
2019-09-16 10:26:43 GMT 47.985722 4.882789 34,000 290 448 0
2019-09-16 10:26:40 GMT 47.981346 4.901381 34,000 290 448 0
2019-09-16 10:26:37 GMT 47.981346 4.901381 34,000 290 448 0
2019-09-16 10:26:30 GMT 47.977158 4.919266 34,000 290 448 0
2019-09-16 10:26:23 GMT 47.972874 4.937439 34,000 290 448 0
2019-09-16 10:26:20 GMT 47.970108 4.949272 34,000 290 448 0
2019-09-16 10:26:16 GMT 47.966949 4.962593 34,000 290 448 0
2019-09-16 10:26:11 GMT 47.962326 4.982094 34,000 290 448 -64
2019-09-16 10:26:08 GMT 47.962326 4.982094 34,000 290 449 -64
2019-09-16 10:26:05 GMT 47.960175 4.991158 34,000 290 448 0
2019-09-16 10:26:01 GMT 47.957047 5.004343 34,000 290 449 -64
2019-09-16 10:25:56 GMT 47.952988 5.021370 34,000 291 449 0
2019-09-16 10:25:53 GMT 47.951889 5.026039 34,000 290 449 -64
2019-09-16 10:25:48 GMT 47.946056 5.050331 34,000 290 449 0
2019-09-16 10:25:45 GMT 47.943962 5.058993 34,000 303 449 0
2019-09-16 10:25:39 GMT 47.941223 5.070190 34,000 290 448 0
2019-09-16 10:25:36 GMT 47.938980 5.079529 34,000 291 449 0
2019-09-16 10:25:32 GMT 47.937260 5.086599 34,000 291 449 0
2019-09-16 10:25:28 GMT 47.934082 5.099510 34,000 291 449 0
2019-09-16 10:25:25 GMT 47.932278 5.106952 34,000 290 450 0
2019-09-16 10:25:19 GMT 47.927582 5.125603 34,000 291 449 0
2019-09-16 10:25:16 GMT 47.925484 5.134207 34,000 290 450 0
2019-09-16 10:25:12 GMT 47.922688 5.145475 34,000 290 450 0
2019-09-16 10:25:08 GMT 47.917614 5.166814 34,000 300 449 0
2019-09-16 10:25:05 GMT 47.917614 5.166814 34,000 289 451 0
2019-09-16 10:25:02 GMT 47.915848 5.174420 34,000 290 450 0
2019-09-16 10:24:58 GMT 47.910446 5.197519 34,000 300 449 0
2019-09-16 10:24:54 GMT 47.910446 5.197519 34,000 294 450 0
2019-09-16 10:24:50 GMT 47.906349 5.213083 34,000 294 450 0
2019-09-16 10:24:46 GMT 47.904442 5.219914 34,000 300 449 0
2019-09-16 10:24:42 GMT 47.900997 5.231464 34,000 296 449 0
2019-09-16 10:24:36 GMT 47.894619 5.251254 34,000 297 449 0
2019-09-16 10:24:30 GMT 47.890045 5.264236 34,000 310 449 0
2019-09-16 10:24:27 GMT 47.886749 5.273163 34,000 303 448 0
2019-09-16 10:24:23 GMT 47.881489 5.286607 34,000 310 448 0
2019-09-16 10:24:20 GMT 47.879208 5.292171 34,000 306 448 0
2019-09-16 10:24:14 GMT 47.872696 5.307289 34,000 305 448 0
2019-09-16 10:24:11 GMT 47.860123 5.333158 34,000 310 448 0
2019-09-16 10:24:05 GMT 47.860123 5.333158 34,000 309 449 0
2019-09-16 10:24:02 GMT 47.857727 5.337570 34,000 310 448 0
2019-09-16 10:23:58 GMT 47.853058 5.346153 34,000 310 448 0
2019-09-16 10:23:54 GMT 47.847015 5.357071 34,000 310 448 0
2019-09-16 10:23:51 GMT 47.843582 5.363251 34,000 310 448 64
2019-09-16 10:23:47 GMT 47.838013 5.373371 34,000 310 448 0
2019-09-16 10:23:44 GMT 47.832596 5.383232 34,000 310 449 -64
2019-09-16 10:23:41 GMT 47.830654 5.386681 34,000 310 449 -64
2019-09-16 10:23:38 GMT 47.827057 5.393257 34,000 310 449 0
2019-09-16 10:23:35 GMT 47.822277 5.401893 34,000 310 449 0
2019-09-16 10:23:31 GMT 47.817108 5.411189 34,000 310 449 0
2019-09-16 10:23:27 GMT 47.804718 5.433632 33,975 310 449 64
2019-09-16 10:23:22 GMT 47.804718 5.433632 34,000 310 449 64
2019-09-16 10:23:18 GMT 47.799419 5.443303 34,000 310 449 0
2019-09-16 10:23:13 GMT 47.794159 5.452810 34,000 310 449 64
2019-09-16 10:23:10 GMT 47.781868 5.474994 33,975 310 449 0
2019-09-16 10:23:04 GMT 47.781868 5.474994 33,975 310 449 0
2019-09-16 10:23:01 GMT 47.778397 5.481285 34,000 310 449 0
2019-09-16 10:22:57 GMT 47.771484 5.493645 34,000 310 449 0
2019-09-16 10:22:54 GMT 47.768051 5.499825 34,000 310 450 -64
2019-09-16 10:22:50 GMT 47.762924 5.509094 34,000 310 450 -64
2019-09-16 10:22:47 GMT 47.754265 5.524715 34,000 310 451 -64
2019-09-16 10:22:43 GMT 47.754265 5.524715 34,000 310 451 0
2019-09-16 10:22:37 GMT 47.746071 5.539433 34,000 310 450 0
2019-09-16 10:22:34 GMT 47.741867 5.546928 34,000 310 451 0
2019-09-16 10:22:31 GMT 47.737831 5.554223 34,000 310 451 -64
2019-09-16 10:22:26 GMT 47.730942 5.566618 34,000 310 451 0
2019-09-16 10:22:23 GMT 47.724285 5.578519 34,000 310 453 0
2019-09-16 10:22:19 GMT 47.720993 5.584419 34,000 310 453 0
2019-09-16 10:22:15 GMT 47.715717 5.593802 34,000 310 453 0
2019-09-16 10:22:10 GMT 47.710190 5.603714 34,000 310 453 0
2019-09-16 10:22:07 GMT 47.704357 5.614155 34,000 310 454 0
2019-09-16 10:22:02 GMT 47.698929 5.623833 34,000 310 454 0
2019-09-16 10:21:59 GMT 47.693573 5.633377 34,000 310 454 0
2019-09-16 10:21:56 GMT 47.691093 5.637817 34,000 310 454 0
2019-09-16 10:21:51 GMT 47.684601 5.649376 34,000 310 455 0
2019-09-16 10:21:45 GMT 47.676270 5.664276 34,000 310 455 0
2019-09-16 10:21:40 GMT 47.667801 5.679314 34,000 310 455 0
2019-09-16 10:21:35 GMT 47.662930 5.688101 34,000 310 455 0
2019-09-16 10:21:29 GMT 47.653805 5.704369 34,000 310 454 0
2019-09-16 10:21:26 GMT 47.649799 5.711553 34,000 310 454 0
2019-09-16 10:21:20 GMT 47.643284 5.723314 34,000 310 454 0
2019-09-16 10:21:17 GMT 47.639137 5.730779 34,000 310 454 0
2019-09-16 10:21:14 GMT 47.633926 5.740145 34,000 310 454 0
2019-09-16 10:21:10 GMT 47.629852 5.747429 34,000 310 454 0
2019-09-16 10:21:06 GMT 47.623215 5.759445 34,000 310 454 0
2019-09-16 10:21:02 GMT 47.619820 5.765569 34,000 310 454 0
2019-09-16 10:20:59 GMT 47.615353 5.773738 34,000 309 453 -64
2019-09-16 10:20:56 GMT 47.611534 5.780780 34,025 309 453 -64
2019-09-16 10:20:53 GMT 47.606094 5.790756 34,025 309 453 -64
2019-09-16 10:20:47 GMT 47.599548 5.802910 34,025 309 453 0
2019-09-16 10:20:44 GMT 47.594971 5.811356 34,000 308 452 0
2019-09-16 10:20:41 GMT 47.590897 5.818771 34,025 310 452 64
2019-09-16 10:20:37 GMT 47.582611 5.833534 34,000 311 452 192
2019-09-16 10:20:31 GMT 47.576900 5.843529 34,000 310 452 64
2019-09-16 10:20:28 GMT 47.573593 5.849396 34,000 309 452 0
2019-09-16 10:20:25 GMT 47.570892 5.854304 34,000 307 452 0
2019-09-16 10:20:22 GMT 47.564941 5.866081 34,000 304 453 0
2019-09-16 10:20:19 GMT 47.562836 5.870682 34,000 304 453 0
2019-09-16 10:20:16 GMT 47.559071 5.879094 34,000 300 454 0
2019-09-16 10:20:13 GMT 47.556244 5.885788 34,000 300 454 0
2019-09-16 10:20:10 GMT 47.552738 5.894799 34,000 298 455 0
2019-09-16 10:20:06 GMT 47.547756 5.908884 34,000 295 456 0
2019-09-16 10:20:02 GMT 47.544220 5.920152 34,000 294 456 0
2019-09-16 10:19:59 GMT 47.542328 5.926575 34,000 292 457 64
2019-09-16 10:19:56 GMT 47.540356 5.933955 34,000 287 458 128
2019-09-16 10:19:53 GMT 47.537979 5.943123 34,000 289 458 64
2019-09-16 10:19:50 GMT 47.535652 5.953322 33,975 287 458 64
2019-09-16 10:19:46 GMT 47.533905 5.961868 33,975 277 462 0
2019-09-16 10:19:39 GMT 47.530163 5.984239 33,975 280 461 0
2019-09-16 10:19:35 GMT 47.528503 5.999016 33,975 278 462 -64
2019-09-16 10:19:32 GMT 47.527786 6.007268 33,975 275 463 0
2019-09-16 10:19:29 GMT 47.527180 6.017339 33,975 275 463 64
2019-09-16 10:19:25 GMT 47.526390 6.031846 33,975 275 463 64
2019-09-16 10:19:21 GMT 47.525757 6.043991 34,000 275 464 64
2019-09-16 10:19:18 GMT 47.525391 6.051544 33,000 275 464 256
2019-09-16 10:19:14 GMT 47.524761 6.064031 33,975 275 464 0
2019-09-16 10:19:10 GMT 47.524109 6.076918 33,975 275 465 1600
2019-09-16 10:19:03 GMT 47.522991 6.098750 33,975 275 464 -64
2019-09-16 10:19:00 GMT 47.522507 6.108398 33,975 275 464 0
2019-09-16 10:18:55 GMT 47.521687 6.124315 34,000 275 465 -192
2019-09-16 10:18:51 GMT 47.521042 6.136482 34,000 275 464 1344
2019-09-16 10:18:48 GMT 47.520676 6.144104 33,925 275 464 1088
2019-09-16 10:18:42 GMT 47.519592 6.165091 34,000 275 464 320
2019-09-16 10:18:39 GMT 47.519211 6.173149 33,850 275 468 2048
2019-09-16 10:18:33 GMT 47.518059 6.195374 33,925 275 464 832
2019-09-16 10:18:30 GMT 47.517685 6.201994 33,875 275 464 960
2019-09-16 10:18:27 GMT 47.516144 6.231171 33,000 275 468 0
2019-09-16 10:18:21 GMT 47.516144 6.231171 33,675 275 465 1664
2019-09-16 10:18:18 GMT 47.515640 6.240990 33,175 275 465 1920
2019-09-16 10:18:15 GMT 47.515125 6.250657 33,200 275 469 1600
2019-09-16 10:18:10 GMT 47.514194 6.268686 33,225 275 468 2048
2019-09-16 10:18:07 GMT 47.513901 6.275253 33,225 275 468 1984
2019-09-16 10:18:04 GMT 47.512798 6.296786 33,075 275 469 1600
2019-09-16 10:18:00 GMT 47.512798 6.296786 33,000 275 469 896
2019-09-16 10:17:57 GMT 47.512253 6.306839 33,000 275 469 128
2019-09-16 10:17:53 GMT 47.511520 6.319885 33,000 275 469 64
2019-09-16 10:17:49 GMT 47.510696 6.335197 33,000 275 469 64
2019-09-16 10:17:46 GMT 47.510376 6.341583 33,000 275 469 0
2019-09-16 10:17:43 GMT 47.508865 6.369667 32,975 275 467 64
2019-09-16 10:17:38 GMT 47.508408 6.377632 33,000 275 468 0
2019-09-16 10:17:31 GMT 47.506931 6.405522 32,775 275 467 128
2019-09-16 10:17:27 GMT 47.506931 6.405522 32,975 275 467 64
2019-09-16 10:17:21 GMT 47.505798 6.425697 32,975 275 465 512
2019-09-16 10:17:18 GMT 47.505535 6.430594 32,975 275 465 576
2019-09-16 10:17:14 GMT 47.504929 6.442003 32,925 275 465 576
2019-09-16 10:17:11 GMT 47.504185 6.455313 32,875 275 464 1152
2019-09-16 10:17:07 GMT 47.503693 6.464561 32,825 275 464 1408
2019-09-16 10:17:04 GMT 47.502975 6.477074 32,675 275 464 1728
2019-09-16 10:17:00 GMT 47.502369 6.488061 32,525 275 464 1792
2019-09-16 10:16:57 GMT 47.501949 6.496019 32,550 275 465 1792
2019-09-16 10:16:53 GMT 47.501129 6.510361 32,350 275 465 1728
2019-09-16 10:16:50 GMT 47.500534 6.521759 32,300 275 465 1728
2019-09-16 10:16:47 GMT 47.500076 6.529655 32,225 275 466 1664
2019-09-16 10:16:44 GMT 47.499481 6.540246 32,100 275 466 1664
2019-09-16 10:16:40 GMT 47.498749 6.554031 32,050 275 466 1664
2019-09-16 10:16:37 GMT 47.498180 6.563979 31,975 275 466 1728
2019-09-16 10:16:34 GMT 47.497898 6.569050 31,875 275 466 1728
2019-09-16 10:16:31 GMT 47.497192 6.581635 31,750 275 466 1728
2019-09-16 10:16:26 GMT 47.496410 6.596022 31,625 275 467 1728
2019-09-16 10:16:22 GMT 47.495621 6.610953 31,475 275 467 1728
2019-09-16 10:16:18 GMT 47.495106 6.620460 31,425 275 467 1664
2019-09-16 10:16:14 GMT 47.494308 6.634300 31,275 275 467 1728
2019-09-16 10:16:10 GMT 47.493713 6.645424 31,200 275 467 1792
2019-09-16 10:16:07 GMT 47.492569 6.665131 31,000 275 467 1856
2019-09-16 10:16:04 GMT 47.492569 6.665131 30,975 275 467 1920
2019-09-16 10:16:01 GMT 47.492035 6.674476 28,600 275 468 2048
2019-09-16 10:15:58 GMT 47.491474 6.684336 30,825 275 468 1984
2019-09-16 10:15:54 GMT 47.490730 6.696730 30,650 275 468 2048
2019-09-16 10:15:51 GMT 47.490128 6.707576 28,600 275 470 2176
2019-09-16 10:15:48 GMT 47.489658 6.716168 30,425 275 469 2176
2019-09-16 10:15:43 GMT 47.488678 6.733246 30,075 275 470 2176
2019-09-16 10:15:39 GMT 47.487473 6.754549 30,075 275 471 2176
2019-09-16 10:15:36 GMT 47.487473 6.754549 30,000 275 472 2176
2019-09-16 10:15:32 GMT 47.486774 6.767015 29,900 275 472 2112
2019-09-16 10:15:28 GMT 47.485886 6.781929 29,650 275 473 2048
2019-09-16 10:15:25 GMT 47.484879 6.799919 29,525 275 473 1856
2019-09-16 10:15:22 GMT 47.484375 6.808296 29,425 275 472 1472
2019-09-16 10:15:19 GMT 47.484375 6.808296 29,425 275 473 1664
2019-09-16 10:15:13 GMT 47.483189 6.828707 29,250 275 472 1472
2019-09-16 10:15:10 GMT 47.482635 6.838852 29,175 275 471 1472
2019-09-16 10:15:07 GMT 47.481857 6.851967 29,175 275 471 1472
2019-09-16 10:15:03 GMT 47.481171 6.863846 28,825 275 470 1728
2019-09-16 10:14:59 GMT 47.480488 6.875188 28,900 275 470 1664
2019-09-16 10:14:54 GMT 47.479698 6.889273 28,775 275 470 1728
2019-09-16 10:14:51 GMT 47.479137 6.898851 28,675 276 469 1728
2019-09-16 10:14:48 GMT 47.478561 6.908272 28,600 276 469 1664
2019-09-16 10:14:44 GMT 47.477692 6.922897 28,375 275 467 1792
2019-09-16 10:14:41 GMT 47.477230 6.931035 28,375 275 468 1728
2019-09-16 10:14:38 GMT 47.476593 6.942055 28,300 275 468 1728
2019-09-16 10:14:33 GMT 47.475586 6.959221 28,150 275 467 1792
2019-09-16 10:14:30 GMT 47.474529 6.976811 28,050 275 467 1792
2019-09-16 10:14:27 GMT 47.474529 6.976811 28,000 276 466 1792
2019-09-16 10:14:24 GMT 47.474030 6.985245 27,875 276 466 1792
2019-09-16 10:14:21 GMT 47.473274 6.998080 27,800 276 465 1792
2019-09-16 10:14:17 GMT 47.472748 7.007423 27,725 276 466 1792
2019-09-16 10:14:13 GMT 47.471272 7.031602 27,500 276 464 1728
2019-09-16 10:14:10 GMT 47.471272 7.031602 27,475 276 464 1728
2019-09-16 10:14:07 GMT 47.470852 7.038856 27,225 276 464 1664
2019-09-16 10:14:03 GMT 47.469406 7.062630 27,250 276 463 1600
2019-09-16 10:14:00 GMT 47.469406 7.062630 27,200 276 462 1536
2019-09-16 10:13:57 GMT 47.468899 7.070336 27,100 276 461 1472
2019-09-16 10:13:54 GMT 47.468124 7.083366 27,050 275 461 1408
2019-09-16 10:13:51 GMT 47.466934 7.103416 26,750 275 459 1984
2019-09-16 10:13:47 GMT 47.466934 7.103416 26,900 275 459 1728
2019-09-16 10:13:44 GMT 47.466568 7.109940 26,775 275 459 1984
2019-09-16 10:13:41 GMT 47.466019 7.119278 26,750 275 458 2048
2019-09-16 10:13:38 GMT 47.465469 7.128960 26,675 276 458 2048
2019-09-16 10:13:35 GMT 47.464939 7.138155 26,375 276 448 1728
2019-09-16 10:13:32 GMT 47.464233 7.150108 26,400 276 456 1600
2019-09-16 10:13:28 GMT 47.463501 7.161575 26,225 276 455 1472
2019-09-16 10:13:25 GMT 47.463043 7.169060 26,225 276 454 1472
2019-09-16 10:13:22 GMT 47.462334 7.180904 26,125 276 453 1536
2019-09-16 10:13:16 GMT 47.461403 7.196045 26,025 276 452 1792
2019-09-16 10:13:12 GMT 47.460663 7.208473 25,850 276 452 1792
2019-09-16 10:13:09 GMT 47.459106 7.234497 25,775 276 440 1920
2019-09-16 10:13:05 GMT 47.459106 7.234497 25,675 276 448 1728
2019-09-16 10:13:01 GMT 47.458515 7.243864 25,475 276 449 1792
2019-09-16 10:12:58 GMT 47.458054 7.251663 25,450 276 448 1792
2019-09-16 10:12:55 GMT 47.457352 7.263090 25,350 276 448 1728
2019-09-16 10:12:52 GMT 47.456749 7.272245 25,275 276 447 1600
2019-09-16 10:12:49 GMT 47.456177 7.281189 25,175 276 440 1920
2019-09-16 10:12:46 GMT 47.455490 7.291894 25,100 276 445 1664
2019-09-16 10:12:43 GMT 47.455032 7.299316 25,000 276 444 1792
2019-09-16 10:12:40 GMT 47.454605 7.306472 24,975 276 444 1792
2019-09-16 10:12:37 GMT 47.453907 7.317599 24,850 276 443 1856
2019-09-16 10:12:34 GMT 47.453350 7.326613 24,700 276 442 1920
2019-09-16 10:12:31 GMT 47.452286 7.344223 24,650 276 442 1920
2019-09-16 10:12:28 GMT 47.452286 7.344223 24,525 276 441 1856
2019-09-16 10:12:25 GMT 47.451645 7.354729 24,450 276 440 1920
2019-09-16 10:12:22 GMT 47.451115 7.363516 24,425 276 440 1920
2019-09-16 10:12:19 GMT 47.450500 7.372925 24,325 276 440 1920
2019-09-16 10:12:15 GMT 47.449905 7.382672 24,150 276 438 1856
2019-09-16 10:12:12 GMT 47.449345 7.391616 23,975 276 438 1856
2019-09-16 10:12:09 GMT 47.448601 7.403165 24,025 276 437 1856
2019-09-16 10:12:06 GMT 47.448029 7.412201 23,850 276 436 2048
2019-09-16 10:12:03 GMT 47.447571 7.419685 23,775 276 436 2048
2019-09-16 10:11:59 GMT 47.446320 7.439646 23,575 276 435 2112
2019-09-16 10:11:56 GMT 47.446320 7.439646 23,500 276 435 2112
2019-09-16 10:11:53 GMT 47.445621 7.450280 23,400 276 434 2048
2019-09-16 10:11:50 GMT 47.445236 7.456627 23,350 276 434 2048
2019-09-16 10:11:47 GMT 47.444733 7.464249 23,125 276 433 2048
2019-09-16 10:11:44 GMT 47.444092 7.474548 22,925 276 433 2048
2019-09-16 10:11:41 GMT 47.443481 7.483521 22,925 276 432 2048
2019-09-16 10:11:38 GMT 47.442764 7.494804 22,875 276 431 2048
2019-09-16 10:11:35 GMT 47.442398 7.500435 22,825 276 431 1984
2019-09-16 10:11:32 GMT 47.441807 7.509648 22,675 276 431 1984
2019-09-16 10:11:29 GMT 47.441246 7.518663 22,600 276 430 2048
2019-09-16 10:11:26 GMT 47.440407 7.531269 22,425 276 430 2176
2019-09-16 10:11:23 GMT 47.439926 7.538338 22,350 276 429 2240
2019-09-16 10:11:20 GMT 47.439606 7.543007 22,300 276 429 2240
2019-09-16 10:11:14 GMT 47.438370 7.561615 22,075 276 428 2112
2019-09-16 10:11:11 GMT 47.437637 7.572670 21,675 276 427 1984
2019-09-16 10:11:08 GMT 47.437042 7.581665 21,825 276 427 1984
2019-09-16 10:11:05 GMT 47.436584 7.588875 21,725 276 425 1984
2019-09-16 10:11:02 GMT 47.435852 7.599586 21,725 276 425 1984
2019-09-16 10:10:59 GMT 47.435333 7.607187 21,400 276 423 1984
2019-09-16 10:10:53 GMT 47.434341 7.622314 21,325 276 422 1984
2019-09-16 10:10:50 GMT 47.433846 7.629582 20,800 276 422 1984
2019-09-16 10:10:47 GMT 47.433014 7.641747 21,150 276 421 2112
2019-09-16 10:10:44 GMT 47.432602 7.647446 21,100 276 420 2112
2019-09-16 10:10:40 GMT 47.431747 7.659795 20,925 276 419 2112
2019-09-16 10:10:37 GMT 47.431137 7.668800 20,800 276 418 2112
2019-09-16 10:10:34 GMT 47.430538 7.677401 20,700 276 418 2176
2019-09-16 10:10:30 GMT 47.429810 7.688301 19,175 275 409 2368
2019-09-16 10:10:27 GMT 47.429142 7.698669 20,475 276 415 2240
2019-09-16 10:10:24 GMT 47.428585 7.706839 20,325 276 415 2176
2019-09-16 10:10:21 GMT 47.428024 7.715290 20,225 276 413 2048
2019-09-16 10:10:18 GMT 47.427475 7.723526 20,075 276 413 2048
2019-09-16 10:10:15 GMT 47.426331 7.740349 19,800 275 394 2432
2019-09-16 10:10:11 GMT 47.426331 7.740349 19,800 276 411 2112
2019-09-16 10:10:08 GMT 47.425697 7.750573 19,800 276 410 2240
2019-09-16 10:10:05 GMT 47.425186 7.758476 19,650 276 410 2240
2019-09-16 10:10:02 GMT 47.424671 7.766982 19,550 275 409 2368
2019-09-16 10:09:59 GMT 47.424088 7.777153 19,450 275 409 2368
2019-09-16 10:09:56 GMT 47.423767 7.782990 19,350 275 408 2432
2019-09-16 10:09:53 GMT 47.423138 7.794236 19,025 275 407 2304
2019-09-16 10:09:49 GMT 47.422485 7.805857 19,050 275 407 2304
2019-09-16 10:09:46 GMT 47.422157 7.811420 18,975 275 406 2176
2019-09-16 10:09:43 GMT 47.421616 7.821442 18,800 275 404 1984
2019-09-16 10:09:40 GMT 47.421135 7.830083 18,675 275 403 1984
2019-09-16 10:09:37 GMT 47.420883 7.835175 18,425 275 398 2624
2019-09-16 10:09:34 GMT 47.420017 7.850858 18,475 275 401 2112
2019-09-16 10:09:31 GMT 47.420017 7.850858 18,425 275 400 2176
2019-09-16 10:09:28 GMT 47.419365 7.862549 18,200 275 398 2560
2019-09-16 10:09:25 GMT 47.418900 7.870648 18,125 275 398 2560
2019-09-16 10:09:22 GMT 47.418484 7.877902 17,925 275 397 2624
2019-09-16 10:09:19 GMT 47.417496 7.896149 17,800 275 397 2560
2019-09-16 10:09:16 GMT 47.417496 7.896149 17,700 275 396 2432
2019-09-16 10:09:13 GMT 47.417271 7.900015 17,675 275 396 2496
2019-09-16 10:09:10 GMT 47.416901 7.907478 17,150 275 395 2432
2019-09-16 10:09:07 GMT 47.416386 7.917762 17,375 275 394 2432
2019-09-16 10:09:04 GMT 47.415920 7.926354 17,275 275 394 2496
2019-09-16 10:09:01 GMT 47.415573 7.933159 17,200 275 393 2496
2019-09-16 10:08:58 GMT 47.415035 7.943960 16,975 275 391 2560
2019-09-16 10:08:55 GMT 47.414612 7.952316 16,850 274 390 2624
2019-09-16 10:08:52 GMT 47.414337 7.957947 16,725 274 389 2688
2019-09-16 10:08:48 GMT 47.413788 7.969345 16,625 274 389 2752
2019-09-16 10:08:45 GMT 47.413128 7.984244 16,350 274 388 3072
2019-09-16 10:08:39 GMT 47.412804 7.991356 16,075 275 388 2560
2019-09-16 10:08:36 GMT 47.412369 8.000519 15,925 275 388 2304
2019-09-16 10:08:33 GMT 47.412048 8.007111 15,925 275 388 2304
2019-09-16 10:08:29 GMT 47.411545 8.017616 15,650 275 384 1664
2019-09-16 10:08:25 GMT 47.411041 8.028122 15,700 275 384 1600
2019-09-16 10:08:22 GMT 47.410538 8.038559 15,500 274 381 2304
2019-09-16 10:08:19 GMT 47.410290 8.043894 15,425 274 380 2432
2019-09-16 10:08:16 GMT 47.409870 8.052979 15,200 274 377 2304
2019-09-16 10:08:13 GMT 47.409485 8.060875 15,125 274 378 2368
2019-09-16 10:08:10 GMT 47.409119 8.069595 15,025 274 377 2240
2019-09-16 10:08:04 GMT 47.408524 8.082161 14,850 275 375 2112
2019-09-16 10:08:01 GMT 47.408054 8.091501 14,725 275 373 2176
2019-09-16 10:07:58 GMT 47.407681 8.098051 14,625 276 371 2304
2019-09-16 10:07:53 GMT 47.406704 8.113192 14,375 276 327 2176
2019-09-16 10:07:50 GMT 47.406464 8.116768 14,000 277 359 2368
2019-09-16 10:07:47 GMT 47.405914 8.124458 14,175 277 366 1984
2019-09-16 10:07:44 GMT 47.405228 8.133385 14,025 277 362 2112
2019-09-16 10:07:41 GMT 47.404633 8.141487 13,850 277 359 2368
2019-09-16 10:07:37 GMT 47.404083 8.148560 13,875 277 359 2368
2019-09-16 10:07:34 GMT 47.403446 8.157489 13,750 277 358 2432
2019-09-16 10:07:31 GMT 47.402847 8.165108 13,550 277 356 2688
2019-09-16 10:07:28 GMT 47.402328 8.172208 13,475 276 354 2688
2019-09-16 10:07:25 GMT 47.401611 8.182137 13,275 276 351 2496
2019-09-16 10:07:22 GMT 47.401474 8.184540 13,175 276 352 2560
2019-09-16 10:07:19 GMT 47.400879 8.193672 13,150 276 352 2496
2019-09-16 10:07:16 GMT 47.400421 8.200813 12,975 275 349 2240
2019-09-16 10:07:13 GMT 47.400002 8.208548 12,750 275 345 1984
2019-09-16 10:07:10 GMT 47.399689 8.214066 12,725 276 327 2176
2019-09-16 10:07:07 GMT 47.399258 8.221999 12,625 275 341 1920
2019-09-16 10:07:04 GMT 47.398453 8.237480 12,525 275 340 1920
2019-09-16 10:07:01 GMT 47.398453 8.237480 12,425 275 338 1856
2019-09-16 10:06:58 GMT 47.398132 8.243935 12,375 275 338 1920
2019-09-16 10:06:55 GMT 47.397766 8.250526 12,225 275 334 2048
2019-09-16 10:06:52 GMT 47.397488 8.254958 12,225 275 334 2048
2019-09-16 10:06:49 GMT 47.396988 8.264122 12,050 276 331 2176
2019-09-16 10:06:46 GMT 47.396484 8.272430 11,400 274 310 1408
2019-09-16 10:06:42 GMT 47.396164 8.278198 11,825 276 326 2112
2019-09-16 10:06:39 GMT 47.395576 8.287565 11,600 276 323 1728
2019-09-16 10:06:35 GMT 47.395065 8.295241 11,600 276 317 1600
2019-09-16 10:06:32 GMT 47.394653 8.301201 11,450 276 315 1600
2019-09-16 10:06:29 GMT 47.394135 8.309044 11,400 274 309 1408
2019-09-16 10:06:26 GMT 47.393810 8.314115 11,350 274 309 1408
2019-09-16 10:06:23 GMT 47.393509 8.320358 11,300 272 307 1152
2019-09-16 10:06:20 GMT 47.393417 8.327843 11,250 271 305 896
2019-09-16 10:06:17 GMT 47.393463 8.334846 11,200 266 296 768
2019-09-16 10:06:14 GMT 47.393600 8.338898 11,075 248 281 2048
2019-09-16 10:06:11 GMT 47.394379 8.348991 11,075 248 281 2048
2019-09-16 10:06:08 GMT 47.394791 8.351875 11,050 256 285 1216
2019-09-16 10:06:05 GMT 47.396790 8.362849 10,800 244 278 2880
2019-09-16 10:06:01 GMT 47.396790 8.362849 10,800 244 278 2880
2019-09-16 10:05:58 GMT 47.398651 8.369751 10,700 245 279 2560
2019-09-16 10:05:55 GMT 47.400372 8.375315 10,625 244 278 2880
2019-09-16 10:05:51 GMT 47.402142 8.380596 10,475 243 276 2368
2019-09-16 10:05:47 GMT 47.404842 8.388343 10,275 243 276 2368
2019-09-16 10:05:44 GMT 47.406876 8.394104 10,225 243 276 2304
2019-09-16 10:05:41 GMT 47.408054 8.397358 10,150 242 274 2112
2019-09-16 10:05:38 GMT 47.410194 8.403273 9,950 242 270 1984
2019-09-16 10:05:34 GMT 47.411964 8.408133 9,875 242 268 1984
2019-09-16 10:05:31 GMT 47.414520 8.414978 9,825 242 265 1920
2019-09-16 10:05:28 GMT 47.416306 8.419853 9,650 242 262 1664
2019-09-16 10:05:24 GMT 47.418110 8.424683 9,575 242 253 1536
2019-09-16 10:05:21 GMT 47.419830 8.429331 9,475 242 253 1536
2019-09-16 10:05:18 GMT 47.421322 8.433415 9,450 242 252 1600
2019-09-16 10:05:15 GMT 47.423859 8.440315 9,300 242 247 1728
2019-09-16 10:05:12 GMT 47.425186 8.443886 9,225 242 245 1600
2019-09-16 10:05:09 GMT 47.426491 8.447500 9,175 242 243 1536
2019-09-16 10:05:06 GMT 47.428436 8.452812 9,075 242 238 1408
2019-09-16 10:05:03 GMT 47.430038 8.457069 8,975 242 234 1216
2019-09-16 10:05:00 GMT 47.433006 8.465177 8,875 243 225 1984
2019-09-16 10:04:57 GMT 47.433006 8.465177 8,875 243 225 1984
2019-09-16 10:04:53 GMT 47.434822 8.470318 8,800 243 225 1984
2019-09-16 10:04:50 GMT 47.436035 8.473618 8,650 243 224 2624
2019-09-16 10:04:47 GMT 47.437756 8.478628 8,550 243 225 2624
2019-09-16 10:04:44 GMT 47.439522 8.483488 8,450 242 224 2688
2019-09-16 10:04:41 GMT 47.441013 8.487502 8,150 242 224 2816
2019-09-16 10:04:38 GMT 47.442078 8.490440 8,075 242 225 2880
2019-09-16 10:04:35 GMT 47.443588 8.494560 7,975 242 225 2880
2019-09-16 10:04:32 GMT 47.446411 8.502362 7,800 243 225 2752
2019-09-16 10:04:26 GMT 47.447891 8.506508 7,325 244 224 2624
2019-09-16 10:04:23 GMT 47.449951 8.512644 7,400 244 223 2304
2019-09-16 10:04:20 GMT 47.451096 8.515984 7,275 244 222 2304
2019-09-16 10:04:17 GMT 47.452240 8.519348 7,075 247 215 1472
2019-09-16 10:04:13 GMT 47.454208 8.525322 7,050 245 219 2176
2019-09-16 10:04:10 GMT 47.455536 8.529475 6,950 247 215 1472
2019-09-16 10:04:07 GMT 47.456329 8.532011 6,900 248 215 1408
2019-09-16 10:04:04 GMT 47.457550 8.536171 6,825 249 211 1600
2019-09-16 10:04:01 GMT 47.460007 8.545603 6,675 250 209 2176
2019-09-16 10:03:58 GMT 47.460007 8.545603 6,600 251 208 2176
2019-09-16 10:03:55 GMT 47.460796 8.548842 6,425 253 207 1920
2019-09-16 10:03:50 GMT 47.462425 8.556096 6,350 254 204 1472
2019-09-16 10:03:46 GMT 47.463547 8.561646 6,250 255 199 1280
2019-09-16 10:03:43 GMT 47.464005 8.564323 6,150 256 196 1344
2019-09-16 10:03:40 GMT 47.465652 8.574211 6,100 258 193 1536
2019-09-16 10:03:37 GMT 47.465652 8.574211 6,025 259 192 1728
2019-09-16 10:03:34 GMT 47.466106 8.577435 5,950 261 190 2176
2019-09-16 10:03:29 GMT 47.466850 8.583984 5,750 269 190 2432
2019-09-16 10:03:26 GMT 47.466980 8.586571 5,675 269 190 2432
2019-09-16 10:03:23 GMT 47.466942 8.591449 5,500 283 190 2304
2019-09-16 10:03:20 GMT 47.466663 8.594900 5,400 288 190 2304
2019-09-16 10:03:17 GMT 47.466057 8.598069 5,300 293 191 2304
2019-09-16 10:03:14 GMT 47.465057 8.601814 5,250 298 190 2368
2019-09-16 10:03:10 GMT 47.463547 8.605797 5,050 310 192 2240
2019-09-16 10:03:07 GMT 47.460892 8.610329 4,875 329 193 2240
2019-09-16 10:03:04 GMT 47.459633 8.611943 4,800 326 193 2240
2019-09-16 10:03:01 GMT 47.456726 8.614792 4,625 339 194 2304
2019-09-16 10:02:58 GMT 47.452377 8.617195 4,425 352 196 2496
2019-09-16 10:02:55 GMT 47.452377 8.617195 4,450 355 197 2624
2019-09-16 10:02:49 GMT 47.444824 8.617882 4,075 16 201 2560
2019-09-16 10:02:43 GMT 47.441711 8.616783 3,925 25 201 2304
2019-09-16 10:02:40 GMT 47.438507 8.614655 3,725 40 202 2304
2019-09-16 10:02:37 GMT 47.437012 8.613281 3,725 40 202 2304
2019-09-16 10:02:34 GMT 47.432373 8.606140 3,525 52 203 2240
2019-09-16 10:02:30 GMT 47.432373 8.606140 3,400 62 202 2240
2019-09-16 10:02:27 GMT 47.431091 8.603119 3,275 67 201 2176
2019-09-16 10:02:23 GMT 47.429535 8.597626 3,175 77 201 2176
2019-09-16 10:02:20 GMT 47.428757 8.592751 3,050 86 199 2176
2019-09-16 10:02:17 GMT 47.428535 8.589266 2,950 91 199 2240
2019-09-16 10:02:13 GMT 47.428619 8.584030 2,500 117 195 2112
2019-09-16 10:02:10 GMT 47.429329 8.578843 2,600 120 194 2176
2019-09-16 10:02:06 GMT 47.430450 8.574692 2,550 117 195 2112
2019-09-16 10:02:03 GMT 47.431843 8.571026 2,400 129 193 2496
2019-09-16 10:01:58 GMT 47.434357 8.566801 2,225 141 192 2752
2019-09-16 10:01:55 GMT 47.436905 8.563911 2,025 148 191 2752
2019-09-16 10:01:49 GMT 47.441437 8.559929 1,775 153 190 2752
2019-09-16 10:01:45 GMT 47.445343 8.557082 1,575 153 190 2688
2019-09-16 10:01:37 GMT 47.451302 8.552856 1,275 154 189 1600
2019-09-16 10:01:33 GMT 47.454208 8.550797 1,175 154 182 704
2019-09-16 10:01:28 GMT 47.457550 8.548462 1,175 154 171 192
2019-09-16 10:01:22 GMT 47.462173 8.545303 1,175 154 141 64
2019-09-16 10:01:18 GMT 47.464417 8.543724 1,175 154 127 64
2019-09-16 10:01:11 GMT 47.468399 8.540977 1,175 154 99 0
2019-09-16 10:01:07 GMT 47.470062 8.539828 1,175 154 96 0
2019-09-16 10:00:57 GMT 47.473446 8.537510 0 154 51
2019-09-16 10:00:47 GMT 47.475033 8.536430 0 157 10
2019-09-16 10:00:13 GMT 47.475216 8.536324 0 160 0
2019-09-16 10:00:03 GMT 47.475220 8.536325 0 160 0
2019-09-16 09:59:23 GMT 47.475216 8.536324 0 160 0
2019-09-16 09:59:13 GMT 47.475220 8.536325 0 160 0
2019-09-16 09:58:52 GMT 47.475216 8.536324 0 160 0
2019-09-16 09:58:44 GMT 47.475220 8.536325 0 160 0
2019-09-16 09:58:34 GMT 47.475216 8.536324 0 160 0
2019-09-16 09:58:23 GMT 47.475266 8.536308 0 160 5
2019-09-16 09:58:13 GMT 47.475449 8.536166 0 188 6
2019-09-16 09:58:05 GMT 47.475632 8.536154 0 227 9
2019-09-16 09:58:02 GMT 47.475719 8.536271 0 244 10
2019-09-16 09:57:53 GMT 47.475891 8.536852 0 247 11
2019-09-16 09:57:42 GMT 47.476078 8.537539 0 264 7
2019-09-16 09:57:32 GMT 47.476089 8.537909 0 281 3
2019-09-16 09:57:10 GMT 47.476089 8.537991 0 286 0
2019-09-16 09:56:50 GMT 47.476089 8.537997 0 286 0
2019-09-16 09:56:30 GMT 47.476089 8.537991 0 286 0
2019-09-16 09:56:21 GMT 47.476089 8.537997 0 286 0
2019-09-16 09:56:00 GMT 47.476089 8.537991 0 286 0
2019-09-16 09:55:50 GMT 47.476078 8.538059 0 289 2
2019-09-16 09:55:40 GMT 47.476044 8.538278 0 298 6
2019-09-16 09:55:29 GMT 47.475880 8.538666 0 320 8
2019-09-16 09:55:19 GMT 47.475578 8.538983 0 334 9
2019-09-16 09:55:08 GMT 47.475170 8.539264 0 334 12
2019-09-16 09:54:59 GMT 47.474693 8.539587 0 334 13
2019-09-16 09:54:48 GMT 47.474110 8.539982 0 337 16
2019-09-16 09:54:36 GMT 47.473320 8.540514 0 334 17
2019-09-16 09:54:28 GMT 47.472435 8.541148 0 334 18
2019-09-16 09:54:18 GMT 47.471970 8.541475 0 334 19
2019-09-16 09:54:15 GMT 47.471729 8.541630 0 334 19
2019-09-16 09:54:07 GMT 47.471100 8.542064 0 334 20
2019-09-16 09:54:04 GMT 47.470772 8.542275 0 334 20
2019-09-16 09:53:57 GMT 47.470310 8.542608 0 334 20
2019-09-16 09:53:51 GMT 47.469772 8.542969 0 334 20
2019-09-16 09:53:47 GMT 47.469475 8.543175 0 334 19
2019-09-16 09:53:40 GMT 47.468910 8.543560 0 334 19
2019-09-16 09:53:36 GMT 47.468662 8.543741 0 334 19
2019-09-16 09:53:29 GMT 47.468079 8.544119 0 340 18
2019-09-16 09:53:26 GMT 47.467850 8.544247 0 340 18
2019-09-16 09:53:18 GMT 47.467289 8.544548 0 334 16
2019-09-16 09:53:15 GMT 47.467106 8.544685 0 337 15
2019-09-16 09:53:10 GMT 47.466763 8.544909 0 334 14
2019-09-16 09:53:06 GMT 47.466545 8.545046 0 334 13
2019-09-16 09:53:00 GMT 47.466187 8.545303 0 334 11
2019-09-16 09:52:55 GMT 47.466022 8.545409 0 334 11
2019-09-16 09:52:49 GMT 47.465710 8.545630 0 334 10
2019-09-16 09:52:45 GMT 47.465603 8.545708 0 334 10
2019-09-16 09:52:37 GMT 47.465275 8.545921 0 334 11
2019-09-16 09:52:33 GMT 47.465080 8.546060 0 334 11
2019-09-16 09:52:27 GMT 47.464840 8.546213 0 334 11
2019-09-16 09:52:24 GMT 47.464485 8.546465 0 334 11
2019-09-16 09:52:17 GMT 47.464348 8.546556 0 334 11
2019-09-16 09:52:14 GMT 47.464279 8.546606 0 334 12
2019-09-16 09:52:10 GMT 47.464085 8.546745 0 334 12
2019-09-16 09:52:05 GMT 47.463848 8.546906 0 334 12
2019-09-16 09:52:00 GMT 47.463593 8.547089 0 331 12
2019-09-16 09:51:53 GMT 47.463306 8.547329 0 315 11
2019-09-16 09:51:50 GMT 47.463184 8.547487 0 295 11
2019-09-16 09:51:45 GMT 47.463078 8.547844 0 278 12
2019-09-16 09:51:40 GMT 47.463043 8.548261 0 275 12
2019-09-16 09:51:30 GMT 47.462975 8.549046 0 275 12
2019-09-16 09:51:23 GMT 47.462940 8.549687 0 275 11
2019-09-16 09:51:18 GMT 47.462929 8.549863 0 275 11
2019-09-16 09:51:10 GMT 47.462849 8.550814 0 275 13
2019-09-16 09:51:02 GMT 47.462837 8.551174 0 275 13
2019-09-16 09:50:58 GMT 47.462814 8.551517 0 275 13
2019-09-16 09:50:54 GMT 47.462791 8.551861 0 275 13
2019-09-16 09:50:51 GMT 47.462776 8.552064 0 275 12
2019-09-16 09:50:48 GMT 47.462757 8.552341 0 275 13
2019-09-16 09:50:45 GMT 47.462742 8.552575 0 275 13
2019-09-16 09:50:38 GMT 47.462700 8.553183 0 275 13
2019-09-16 09:50:34 GMT 47.462666 8.553577 0 275 13
2019-09-16 09:50:30 GMT 47.462646 8.553825 0 275 12
2019-09-16 09:50:23 GMT 47.462608 8.554367 0 275 11
2019-09-16 09:50:18 GMT 47.462585 8.554762 0 275 10
2019-09-16 09:50:09 GMT 47.462543 8.555339 0 275 9
2019-09-16 09:50:01 GMT 47.462517 8.555758 0 275 8
2019-09-16 09:49:57 GMT 47.462498 8.555938 0 275 7
2019-09-16 09:49:53 GMT 47.462482 8.556152 0 275 6
2019-09-16 09:49:48 GMT 47.462471 8.556341 0 275 6
2019-09-16 09:49:41 GMT 47.462448 8.556589 0 275 5
2019-09-16 09:49:38 GMT 47.462448 8.556659 0 275 4
2019-09-16 09:49:32 GMT 47.462440 8.556818 0 275 3
2019-09-16 09:49:29 GMT 47.462437 8.556873 0 275 3
2019-09-16 09:49:20 GMT 47.462425 8.556976 0 278 0
2019-09-16 09:49:10 GMT 47.462425 8.557011 0 278 0
2019-09-16 09:48:55 GMT 47.462425 8.557028 0 278 0
2019-09-16 09:48:40 GMT 47.462425 8.557012 0 278 0
2019-09-16 09:48:30 GMT 47.462425 8.557012 0 278 0
2019-09-16 09:48:20 GMT 47.462425 8.557011 0 278 0

Making use of Plane Finder data

You are free to use the raw flight data, aircraft information and images provided in this report for your own purposes provided the data is correctly attributed to Plane Finder. We ask that you please credit Plane Finder and link to planefinder.net in close proximity to the content.

Optionally one of the following logos (no smaller then 150x24px) can be used and must link to planefinder.net

Embedding the Plane Finder map

You are welcome to embed the Plane Finder playback map on your website to offer visitors a more interactive experience. We suggest using the following HTML code:

<iframe src="//planefinder.net/data/report/AA93-N393AN-7700-squawk-2019-09-16/map" width="800" height="600" seamless="seamless"></iframe>

Where our data comes from

Plane Finder has a global network of data feeds and antenna radars that receive data broadcast directly from aircraft. The primary technologies used are ADS-B and MLAT. We also show feeds from the FAA and a FLARM glider feed.

Click here to find out more about the Plane Finder network.

How we collect our data